<?xml version="1.0" encoding="UTF-8" standalone="no" ?>
<gpx xmlns="http://www.topografix.com/GPX/1/1" xmlns:xsi="http://www.w3.org/2001/XMLSchema-instance" xsi:schemaLocation="http://www.topografix.com/GPX/1/1 http://www.topografix.com/GPX/1/1/gpx.xsd" version="1.1" creator="VisuGPX - https://www.visugpx.com">
  <metadata>
    <name>CHATILLON LE DUC - TALLENAY</name>
    <desc><![CDATA[CHATILLON LE DUC - TALLENAY]]></desc>
  </metadata>
  <trk>
    <name><![CDATA[CHATILLON LE DUC-TALLENAY]]></name>
    <trkseg>
      <trkpt lat="47.30644" lon="6.00895">
        <ele>434</ele>
        <time>2012-05-07T11:50:11Z</time>
      </trkpt>
      <trkpt lat="47.30644" lon="6.00895">
        <ele>471.9</ele>
        <time>2012-05-07T11:54:51Z</time>
      </trkpt>
      <trkpt lat="47.30644" lon="6.00895">
        <ele>434</ele>
        <time>2012-05-07T11:55:02Z</time>
      </trkpt>
      <trkpt lat="47.30644" lon="6.00895">
        <ele>434</ele>
        <time>2012-05-07T11:56:43Z</time>
      </trkpt>
      <trkpt lat="47.30644" lon="6.00895">
        <ele>434</ele>
        <time>2012-05-07T11:56:54Z</time>
      </trkpt>
      <trkpt lat="47.30644" lon="6.00895">
        <ele>434</ele>
        <time>2012-05-07T12:03:10Z</time>
      </trkpt>
      <trkpt lat="47.30657" lon="6.00899">
        <ele>486.2</ele>
        <time>2012-05-07T12:03:20Z</time>
      </trkpt>
      <trkpt lat="47.30657" lon="6.00899">
        <ele>434</ele>
        <time>2012-05-07T12:03:31Z</time>
      </trkpt>
      <trkpt lat="47.30657" lon="6.00899">
        <ele>434</ele>
        <time>2012-05-07T12:03:52Z</time>
      </trkpt>
      <trkpt lat="47.30657" lon="6.00899">
        <ele>434</ele>
        <time>2012-05-07T12:04:04Z</time>
      </trkpt>
      <trkpt lat="47.30657" lon="6.00899">
        <ele>434</ele>
        <time>2012-05-07T12:04:58Z</time>
      </trkpt>
      <trkpt lat="47.30668" lon="6.00911">
        <ele>489.6</ele>
        <time>2012-05-07T12:05:04Z</time>
      </trkpt>
      <trkpt lat="47.30668" lon="6.00921">
        <ele>488.8</ele>
        <time>2012-05-07T12:05:09Z</time>
      </trkpt>
      <trkpt lat="47.3067" lon="6.0093">
        <ele>489.8</ele>
        <time>2012-05-07T12:05:14Z</time>
      </trkpt>
      <trkpt lat="47.30671" lon="6.00939">
        <ele>488.8</ele>
        <time>2012-05-07T12:05:19Z</time>
      </trkpt>
      <trkpt lat="47.30677" lon="6.00944">
        <ele>488.6</ele>
        <time>2012-05-07T12:05:26Z</time>
      </trkpt>
      <trkpt lat="47.30677" lon="6.00962">
        <ele>488.3</ele>
        <time>2012-05-07T12:05:28Z</time>
      </trkpt>
      <trkpt lat="47.30677" lon="6.00973">
        <ele>488</ele>
        <time>2012-05-07T12:05:33Z</time>
      </trkpt>
      <trkpt lat="47.30678" lon="6.00983">
        <ele>487.8</ele>
        <time>2012-05-07T12:05:41Z</time>
      </trkpt>
      <trkpt lat="47.30678" lon="6.00994">
        <ele>488.1</ele>
        <time>2012-05-07T12:05:47Z</time>
      </trkpt>
      <trkpt lat="47.30681" lon="6.01002">
        <ele>487.6</ele>
        <time>2012-05-07T12:05:53Z</time>
      </trkpt>
      <trkpt lat="47.30677" lon="6.01011">
        <ele>487.2</ele>
        <time>2012-05-07T12:05:59Z</time>
      </trkpt>
      <trkpt lat="47.30676" lon="6.01022">
        <ele>487.6</ele>
        <time>2012-05-07T12:06:05Z</time>
      </trkpt>
      <trkpt lat="47.3067" lon="6.01024">
        <ele>488</ele>
        <time>2012-05-07T12:06:08Z</time>
      </trkpt>
      <trkpt lat="47.30672" lon="6.01033">
        <ele>487.5</ele>
        <time>2012-05-07T12:06:15Z</time>
      </trkpt>
      <trkpt lat="47.30676" lon="6.01042">
        <ele>488.2</ele>
        <time>2012-05-07T12:06:20Z</time>
      </trkpt>
      <trkpt lat="47.30677" lon="6.01052">
        <ele>487.8</ele>
        <time>2012-05-07T12:06:24Z</time>
      </trkpt>
      <trkpt lat="47.30679" lon="6.0106">
        <ele>487.3</ele>
        <time>2012-05-07T12:06:29Z</time>
      </trkpt>
      <trkpt lat="47.30678" lon="6.01072">
        <ele>487.9</ele>
        <time>2012-05-07T12:06:36Z</time>
      </trkpt>
      <trkpt lat="47.30683" lon="6.01079">
        <ele>486</ele>
        <time>2012-05-07T12:06:40Z</time>
      </trkpt>
      <trkpt lat="47.30683" lon="6.01088">
        <ele>484.2</ele>
        <time>2012-05-07T12:06:48Z</time>
      </trkpt>
      <trkpt lat="47.30681" lon="6.01098">
        <ele>484.6</ele>
        <time>2012-05-07T12:06:54Z</time>
      </trkpt>
      <trkpt lat="47.30683" lon="6.01107">
        <ele>484.4</ele>
        <time>2012-05-07T12:07:00Z</time>
      </trkpt>
      <trkpt lat="47.30684" lon="6.01117">
        <ele>483</ele>
        <time>2012-05-07T12:07:04Z</time>
      </trkpt>
      <trkpt lat="47.30686" lon="6.01128">
        <ele>484.2</ele>
        <time>2012-05-07T12:07:09Z</time>
      </trkpt>
      <trkpt lat="47.30686" lon="6.01138">
        <ele>485.7</ele>
        <time>2012-05-07T12:07:14Z</time>
      </trkpt>
      <trkpt lat="47.30686" lon="6.01147">
        <ele>487.2</ele>
        <time>2012-05-07T12:07:19Z</time>
      </trkpt>
      <trkpt lat="47.30689" lon="6.01157">
        <ele>488.4</ele>
        <time>2012-05-07T12:07:23Z</time>
      </trkpt>
      <trkpt lat="47.3069" lon="6.01167">
        <ele>486.8</ele>
        <time>2012-05-07T12:07:32Z</time>
      </trkpt>
      <trkpt lat="47.3069" lon="6.01179">
        <ele>487.7</ele>
        <time>2012-05-07T12:07:37Z</time>
      </trkpt>
      <trkpt lat="47.3069" lon="6.01189">
        <ele>487.7</ele>
        <time>2012-05-07T12:07:43Z</time>
      </trkpt>
      <trkpt lat="47.3069" lon="6.01198">
        <ele>488.2</ele>
        <time>2012-05-07T12:07:48Z</time>
      </trkpt>
      <trkpt lat="47.30693" lon="6.01208">
        <ele>487.6</ele>
        <time>2012-05-07T12:07:53Z</time>
      </trkpt>
      <trkpt lat="47.30697" lon="6.01215">
        <ele>488.6</ele>
        <time>2012-05-07T12:07:57Z</time>
      </trkpt>
      <trkpt lat="47.30696" lon="6.01225">
        <ele>488.4</ele>
        <time>2012-05-07T12:08:03Z</time>
      </trkpt>
      <trkpt lat="47.30694" lon="6.01235">
        <ele>489.3</ele>
        <time>2012-05-07T12:08:07Z</time>
      </trkpt>
      <trkpt lat="47.30693" lon="6.01246">
        <ele>489.8</ele>
        <time>2012-05-07T12:08:13Z</time>
      </trkpt>
      <trkpt lat="47.30692" lon="6.01256">
        <ele>488</ele>
        <time>2012-05-07T12:08:19Z</time>
      </trkpt>
      <trkpt lat="47.30694" lon="6.01266">
        <ele>488.8</ele>
        <time>2012-05-07T12:08:26Z</time>
      </trkpt>
      <trkpt lat="47.30695" lon="6.01276">
        <ele>489.4</ele>
        <time>2012-05-07T12:08:31Z</time>
      </trkpt>
      <trkpt lat="47.30696" lon="6.01286">
        <ele>490</ele>
        <time>2012-05-07T12:08:37Z</time>
      </trkpt>
      <trkpt lat="47.30698" lon="6.01296">
        <ele>490.2</ele>
        <time>2012-05-07T12:08:42Z</time>
      </trkpt>
      <trkpt lat="47.30697" lon="6.01307">
        <ele>490.3</ele>
        <time>2012-05-07T12:08:47Z</time>
      </trkpt>
      <trkpt lat="47.30698" lon="6.01317">
        <ele>489.9</ele>
        <time>2012-05-07T12:08:51Z</time>
      </trkpt>
      <trkpt lat="47.30699" lon="6.01327">
        <ele>489.2</ele>
        <time>2012-05-07T12:08:58Z</time>
      </trkpt>
      <trkpt lat="47.307" lon="6.01337">
        <ele>487.1</ele>
        <time>2012-05-07T12:09:04Z</time>
      </trkpt>
      <trkpt lat="47.307" lon="6.01337">
        <ele>437.1</ele>
        <time>2012-05-07T12:10:24Z</time>
      </trkpt>
      <trkpt lat="47.30703" lon="6.01438">
        <ele>478.1</ele>
        <time>2012-05-07T12:10:27Z</time>
      </trkpt>
      <trkpt lat="47.307" lon="6.01448">
        <ele>480.9</ele>
        <time>2012-05-07T12:10:31Z</time>
      </trkpt>
      <trkpt lat="47.30704" lon="6.01457">
        <ele>477.5</ele>
        <time>2012-05-07T12:10:36Z</time>
      </trkpt>
      <trkpt lat="47.30701" lon="6.01467">
        <ele>484.2</ele>
        <time>2012-05-07T12:10:45Z</time>
      </trkpt>
      <trkpt lat="47.30696" lon="6.01474">
        <ele>482.1</ele>
        <time>2012-05-07T12:10:50Z</time>
      </trkpt>
      <trkpt lat="47.30696" lon="6.01485">
        <ele>486.4</ele>
        <time>2012-05-07T12:10:56Z</time>
      </trkpt>
      <trkpt lat="47.30694" lon="6.01494">
        <ele>490</ele>
        <time>2012-05-07T12:11:03Z</time>
      </trkpt>
      <trkpt lat="47.30696" lon="6.01503">
        <ele>489.8</ele>
        <time>2012-05-07T12:11:09Z</time>
      </trkpt>
      <trkpt lat="47.30696" lon="6.01512">
        <ele>488</ele>
        <time>2012-05-07T12:11:14Z</time>
      </trkpt>
      <trkpt lat="47.30698" lon="6.01522">
        <ele>488.1</ele>
        <time>2012-05-07T12:11:21Z</time>
      </trkpt>
      <trkpt lat="47.30694" lon="6.01532">
        <ele>486.7</ele>
        <time>2012-05-07T12:11:26Z</time>
      </trkpt>
      <trkpt lat="47.30697" lon="6.01541">
        <ele>490.1</ele>
        <time>2012-05-07T12:11:33Z</time>
      </trkpt>
      <trkpt lat="47.30695" lon="6.0155">
        <ele>490.4</ele>
        <time>2012-05-07T12:11:39Z</time>
      </trkpt>
      <trkpt lat="47.30692" lon="6.0156">
        <ele>491.4</ele>
        <time>2012-05-07T12:11:44Z</time>
      </trkpt>
      <trkpt lat="47.30692" lon="6.01571">
        <ele>490.5</ele>
        <time>2012-05-07T12:11:49Z</time>
      </trkpt>
      <trkpt lat="47.30692" lon="6.01582">
        <ele>489.9</ele>
        <time>2012-05-07T12:11:55Z</time>
      </trkpt>
      <trkpt lat="47.30689" lon="6.01592">
        <ele>488.8</ele>
        <time>2012-05-07T12:12:01Z</time>
      </trkpt>
      <trkpt lat="47.30695" lon="6.01597">
        <ele>488.5</ele>
        <time>2012-05-07T12:12:07Z</time>
      </trkpt>
      <trkpt lat="47.30696" lon="6.01607">
        <ele>488.1</ele>
        <time>2012-05-07T12:12:13Z</time>
      </trkpt>
      <trkpt lat="47.30704" lon="6.01606">
        <ele>487.3</ele>
        <time>2012-05-07T12:12:22Z</time>
      </trkpt>
      <trkpt lat="47.30708" lon="6.01613">
        <ele>487.7</ele>
        <time>2012-05-07T12:12:32Z</time>
      </trkpt>
      <trkpt lat="47.30712" lon="6.01621">
        <ele>487.3</ele>
        <time>2012-05-07T12:12:41Z</time>
      </trkpt>
      <trkpt lat="47.30719" lon="6.0162">
        <ele>487.5</ele>
        <time>2012-05-07T12:12:45Z</time>
      </trkpt>
      <trkpt lat="47.30725" lon="6.01625">
        <ele>487.2</ele>
        <time>2012-05-07T12:12:50Z</time>
      </trkpt>
      <trkpt lat="47.30733" lon="6.0163">
        <ele>487.4</ele>
        <time>2012-05-07T12:12:57Z</time>
      </trkpt>
      <trkpt lat="47.30739" lon="6.01628">
        <ele>486.8</ele>
        <time>2012-05-07T12:13:03Z</time>
      </trkpt>
      <trkpt lat="47.30745" lon="6.01631">
        <ele>487.3</ele>
        <time>2012-05-07T12:13:09Z</time>
      </trkpt>
      <trkpt lat="47.30751" lon="6.01636">
        <ele>486.7</ele>
        <time>2012-05-07T12:13:15Z</time>
      </trkpt>
      <trkpt lat="47.30758" lon="6.01638">
        <ele>487.1</ele>
        <time>2012-05-07T12:13:20Z</time>
      </trkpt>
      <trkpt lat="47.30763" lon="6.01644">
        <ele>486.1</ele>
        <time>2012-05-07T12:13:24Z</time>
      </trkpt>
      <trkpt lat="47.30767" lon="6.01651">
        <ele>486.3</ele>
        <time>2012-05-07T12:13:29Z</time>
      </trkpt>
      <trkpt lat="47.30773" lon="6.01655">
        <ele>485.6</ele>
        <time>2012-05-07T12:13:34Z</time>
      </trkpt>
      <trkpt lat="47.3078" lon="6.01658">
        <ele>486</ele>
        <time>2012-05-07T12:13:41Z</time>
      </trkpt>
      <trkpt lat="47.30786" lon="6.01664">
        <ele>485.8</ele>
        <time>2012-05-07T12:13:48Z</time>
      </trkpt>
      <trkpt lat="47.30791" lon="6.01671">
        <ele>485.8</ele>
        <time>2012-05-07T12:13:55Z</time>
      </trkpt>
      <trkpt lat="47.30798" lon="6.01672">
        <ele>486.5</ele>
        <time>2012-05-07T12:13:59Z</time>
      </trkpt>
      <trkpt lat="47.30805" lon="6.01677">
        <ele>486.6</ele>
        <time>2012-05-07T12:14:05Z</time>
      </trkpt>
      <trkpt lat="47.3081" lon="6.01684">
        <ele>489.4</ele>
        <time>2012-05-07T12:14:09Z</time>
      </trkpt>
      <trkpt lat="47.30815" lon="6.0169">
        <ele>488.5</ele>
        <time>2012-05-07T12:14:15Z</time>
      </trkpt>
      <trkpt lat="47.30818" lon="6.01699">
        <ele>487.8</ele>
        <time>2012-05-07T12:14:23Z</time>
      </trkpt>
      <trkpt lat="47.30823" lon="6.01703">
        <ele>486.4</ele>
        <time>2012-05-07T12:14:27Z</time>
      </trkpt>
      <trkpt lat="47.3083" lon="6.01707">
        <ele>486.3</ele>
        <time>2012-05-07T12:14:32Z</time>
      </trkpt>
      <trkpt lat="47.30837" lon="6.0171">
        <ele>486.1</ele>
        <time>2012-05-07T12:14:37Z</time>
      </trkpt>
      <trkpt lat="47.30844" lon="6.01715">
        <ele>485.2</ele>
        <time>2012-05-07T12:14:46Z</time>
      </trkpt>
      <trkpt lat="47.30849" lon="6.01723">
        <ele>485.7</ele>
        <time>2012-05-07T12:14:53Z</time>
      </trkpt>
      <trkpt lat="47.30855" lon="6.01728">
        <ele>485.4</ele>
        <time>2012-05-07T12:14:57Z</time>
      </trkpt>
      <trkpt lat="47.3086" lon="6.01734">
        <ele>485</ele>
        <time>2012-05-07T12:15:03Z</time>
      </trkpt>
      <trkpt lat="47.30867" lon="6.01741">
        <ele>486.3</ele>
        <time>2012-05-07T12:15:09Z</time>
      </trkpt>
      <trkpt lat="47.30873" lon="6.01746">
        <ele>487.3</ele>
        <time>2012-05-07T12:15:15Z</time>
      </trkpt>
      <trkpt lat="47.3088" lon="6.01747">
        <ele>487.5</ele>
        <time>2012-05-07T12:15:19Z</time>
      </trkpt>
      <trkpt lat="47.30887" lon="6.01747">
        <ele>487.9</ele>
        <time>2012-05-07T12:15:24Z</time>
      </trkpt>
      <trkpt lat="47.30892" lon="6.01753">
        <ele>486.5</ele>
        <time>2012-05-07T12:15:27Z</time>
      </trkpt>
      <trkpt lat="47.30897" lon="6.0176">
        <ele>486.6</ele>
        <time>2012-05-07T12:15:36Z</time>
      </trkpt>
      <trkpt lat="47.30903" lon="6.01765">
        <ele>485.5</ele>
        <time>2012-05-07T12:15:42Z</time>
      </trkpt>
      <trkpt lat="47.30909" lon="6.01766">
        <ele>484.9</ele>
        <time>2012-05-07T12:15:46Z</time>
      </trkpt>
      <trkpt lat="47.30916" lon="6.01769">
        <ele>484.4</ele>
        <time>2012-05-07T12:15:50Z</time>
      </trkpt>
      <trkpt lat="47.3092" lon="6.01777">
        <ele>484.9</ele>
        <time>2012-05-07T12:15:58Z</time>
      </trkpt>
      <trkpt lat="47.30926" lon="6.0178">
        <ele>485.1</ele>
        <time>2012-05-07T12:16:05Z</time>
      </trkpt>
      <trkpt lat="47.30931" lon="6.01786">
        <ele>487.8</ele>
        <time>2012-05-07T12:16:15Z</time>
      </trkpt>
      <trkpt lat="47.30938" lon="6.01785">
        <ele>488.9</ele>
        <time>2012-05-07T12:16:22Z</time>
      </trkpt>
      <trkpt lat="47.30946" lon="6.01785">
        <ele>490.1</ele>
        <time>2012-05-07T12:16:26Z</time>
      </trkpt>
      <trkpt lat="47.30952" lon="6.01778">
        <ele>491</ele>
        <time>2012-05-07T12:16:32Z</time>
      </trkpt>
      <trkpt lat="47.30957" lon="6.01769">
        <ele>491.5</ele>
        <time>2012-05-07T12:16:38Z</time>
      </trkpt>
      <trkpt lat="47.30964" lon="6.01765">
        <ele>494.3</ele>
        <time>2012-05-07T12:16:47Z</time>
      </trkpt>
      <trkpt lat="47.30964" lon="6.01765">
        <ele>443.4</ele>
        <time>2012-05-07T12:16:58Z</time>
      </trkpt>
      <trkpt lat="47.30964" lon="6.01765">
        <ele>443.4</ele>
        <time>2012-05-07T12:17:03Z</time>
      </trkpt>
      <trkpt lat="47.30964" lon="6.01765">
        <ele>443.4</ele>
        <time>2012-05-07T12:17:14Z</time>
      </trkpt>
      <trkpt lat="47.30964" lon="6.01765">
        <ele>443.4</ele>
        <time>2012-05-07T12:17:15Z</time>
      </trkpt>
      <trkpt lat="47.30983" lon="6.01763">
        <ele>493.6</ele>
        <time>2012-05-07T12:17:18Z</time>
      </trkpt>
      <trkpt lat="47.30995" lon="6.01765">
        <ele>494</ele>
        <time>2012-05-07T12:17:27Z</time>
      </trkpt>
      <trkpt lat="47.31004" lon="6.0177">
        <ele>493.6</ele>
        <time>2012-05-07T12:17:33Z</time>
      </trkpt>
      <trkpt lat="47.31013" lon="6.01771">
        <ele>493</ele>
        <time>2012-05-07T12:17:35Z</time>
      </trkpt>
      <trkpt lat="47.31022" lon="6.01774">
        <ele>495.4</ele>
        <time>2012-05-07T12:17:38Z</time>
      </trkpt>
      <trkpt lat="47.31028" lon="6.01769">
        <ele>492.4</ele>
        <time>2012-05-07T12:17:47Z</time>
      </trkpt>
      <trkpt lat="47.31028" lon="6.01769">
        <ele>441</ele>
        <time>2012-05-07T12:17:58Z</time>
      </trkpt>
      <trkpt lat="47.31028" lon="6.01769">
        <ele>441</ele>
        <time>2012-05-07T12:18:01Z</time>
      </trkpt>
      <trkpt lat="47.31041" lon="6.01774">
        <ele>491.3</ele>
        <time>2012-05-07T12:18:06Z</time>
      </trkpt>
      <trkpt lat="47.31048" lon="6.01775">
        <ele>491.1</ele>
        <time>2012-05-07T12:18:13Z</time>
      </trkpt>
      <trkpt lat="47.31055" lon="6.01776">
        <ele>489.9</ele>
        <time>2012-05-07T12:18:19Z</time>
      </trkpt>
      <trkpt lat="47.31062" lon="6.01777">
        <ele>492.3</ele>
        <time>2012-05-07T12:18:28Z</time>
      </trkpt>
      <trkpt lat="47.31068" lon="6.01775">
        <ele>494.2</ele>
        <time>2012-05-07T12:18:37Z</time>
      </trkpt>
      <trkpt lat="47.31075" lon="6.01778">
        <ele>492.9</ele>
        <time>2012-05-07T12:18:42Z</time>
      </trkpt>
      <trkpt lat="47.31083" lon="6.01777">
        <ele>493.6</ele>
        <time>2012-05-07T12:18:47Z</time>
      </trkpt>
      <trkpt lat="47.31089" lon="6.01773">
        <ele>492.1</ele>
        <time>2012-05-07T12:18:51Z</time>
      </trkpt>
      <trkpt lat="47.31096" lon="6.01772">
        <ele>492.5</ele>
        <time>2012-05-07T12:18:55Z</time>
      </trkpt>
      <trkpt lat="47.31103" lon="6.01771">
        <ele>494.7</ele>
        <time>2012-05-07T12:19:01Z</time>
      </trkpt>
      <trkpt lat="47.31109" lon="6.01776">
        <ele>494.9</ele>
        <time>2012-05-07T12:19:04Z</time>
      </trkpt>
      <trkpt lat="47.31117" lon="6.01782">
        <ele>497.8</ele>
        <time>2012-05-07T12:19:09Z</time>
      </trkpt>
      <trkpt lat="47.31122" lon="6.0179">
        <ele>497.2</ele>
        <time>2012-05-07T12:19:16Z</time>
      </trkpt>
      <trkpt lat="47.31125" lon="6.01799">
        <ele>496.3</ele>
        <time>2012-05-07T12:19:23Z</time>
      </trkpt>
      <trkpt lat="47.3113" lon="6.01806">
        <ele>494.8</ele>
        <time>2012-05-07T12:19:28Z</time>
      </trkpt>
      <trkpt lat="47.31131" lon="6.01816">
        <ele>494.6</ele>
        <time>2012-05-07T12:19:34Z</time>
      </trkpt>
      <trkpt lat="47.31136" lon="6.01822">
        <ele>493.5</ele>
        <time>2012-05-07T12:19:38Z</time>
      </trkpt>
      <trkpt lat="47.31142" lon="6.0183">
        <ele>493.3</ele>
        <time>2012-05-07T12:19:43Z</time>
      </trkpt>
      <trkpt lat="47.31143" lon="6.0184">
        <ele>493.5</ele>
        <time>2012-05-07T12:19:51Z</time>
      </trkpt>
      <trkpt lat="47.31148" lon="6.01848">
        <ele>492.8</ele>
        <time>2012-05-07T12:19:56Z</time>
      </trkpt>
      <trkpt lat="47.31147" lon="6.01857">
        <ele>492.5</ele>
        <time>2012-05-07T12:20:01Z</time>
      </trkpt>
      <trkpt lat="47.3115" lon="6.01866">
        <ele>492.7</ele>
        <time>2012-05-07T12:20:08Z</time>
      </trkpt>
      <trkpt lat="47.3115" lon="6.01866">
        <ele>448.2</ele>
        <time>2012-05-07T12:20:20Z</time>
      </trkpt>
      <trkpt lat="47.3115" lon="6.01866">
        <ele>448.2</ele>
        <time>2012-05-07T12:20:20Z</time>
      </trkpt>
      <trkpt lat="47.3115" lon="6.01866">
        <ele>448.2</ele>
        <time>2012-05-07T12:20:32Z</time>
      </trkpt>
      <trkpt lat="47.31234" lon="6.01997">
        <ele>504.2</ele>
        <time>2012-05-07T12:23:17Z</time>
      </trkpt>
      <trkpt lat="47.31237" lon="6.02006">
        <ele>502.9</ele>
        <time>2012-05-07T12:23:23Z</time>
      </trkpt>
      <trkpt lat="47.31241" lon="6.02016">
        <ele>506.6</ele>
        <time>2012-05-07T12:23:30Z</time>
      </trkpt>
      <trkpt lat="47.31236" lon="6.02022">
        <ele>506.1</ele>
        <time>2012-05-07T12:23:36Z</time>
      </trkpt>
      <trkpt lat="47.3124" lon="6.0203">
        <ele>506.2</ele>
        <time>2012-05-07T12:23:46Z</time>
      </trkpt>
      <trkpt lat="47.31247" lon="6.02029">
        <ele>505.3</ele>
        <time>2012-05-07T12:23:49Z</time>
      </trkpt>
      <trkpt lat="47.31252" lon="6.02035">
        <ele>504</ele>
        <time>2012-05-07T12:23:56Z</time>
      </trkpt>
      <trkpt lat="47.31257" lon="6.02042">
        <ele>505.5</ele>
        <time>2012-05-07T12:24:03Z</time>
      </trkpt>
      <trkpt lat="47.31253" lon="6.0205">
        <ele>506.1</ele>
        <time>2012-05-07T12:24:10Z</time>
      </trkpt>
      <trkpt lat="47.31253" lon="6.0205">
        <ele>461.5</ele>
        <time>2012-05-07T12:24:22Z</time>
      </trkpt>
      <trkpt lat="47.31253" lon="6.0205">
        <ele>461.5</ele>
        <time>2012-05-07T12:25:32Z</time>
      </trkpt>
      <trkpt lat="47.31259" lon="6.02069">
        <ele>509.7</ele>
        <time>2012-05-07T12:25:36Z</time>
      </trkpt>
      <trkpt lat="47.31259" lon="6.02069">
        <ele>462.6</ele>
        <time>2012-05-07T12:25:47Z</time>
      </trkpt>
      <trkpt lat="47.31259" lon="6.02069">
        <ele>462.6</ele>
        <time>2012-05-07T12:26:49Z</time>
      </trkpt>
      <trkpt lat="47.31262" lon="6.02094">
        <ele>509</ele>
        <time>2012-05-07T12:26:52Z</time>
      </trkpt>
      <trkpt lat="47.31264" lon="6.02102">
        <ele>507.6</ele>
        <time>2012-05-07T12:27:00Z</time>
      </trkpt>
      <trkpt lat="47.31264" lon="6.02102">
        <ele>464.2</ele>
        <time>2012-05-07T12:27:11Z</time>
      </trkpt>
      <trkpt lat="47.31264" lon="6.02102">
        <ele>464.2</ele>
        <time>2012-05-07T12:27:42Z</time>
      </trkpt>
      <trkpt lat="47.31268" lon="6.02151">
        <ele>519.4</ele>
        <time>2012-05-07T12:27:47Z</time>
      </trkpt>
      <trkpt lat="47.31269" lon="6.0216">
        <ele>516.8</ele>
        <time>2012-05-07T12:27:56Z</time>
      </trkpt>
      <trkpt lat="47.31275" lon="6.02164">
        <ele>516.6</ele>
        <time>2012-05-07T12:28:00Z</time>
      </trkpt>
      <trkpt lat="47.31276" lon="6.02174">
        <ele>518.7</ele>
        <time>2012-05-07T12:28:05Z</time>
      </trkpt>
      <trkpt lat="47.31276" lon="6.02174">
        <ele>468.1</ele>
        <time>2012-05-07T12:28:16Z</time>
      </trkpt>
      <trkpt lat="47.31276" lon="6.02174">
        <ele>468.1</ele>
        <time>2012-05-07T12:28:19Z</time>
      </trkpt>
      <trkpt lat="47.31276" lon="6.02174">
        <ele>468.1</ele>
        <time>2012-05-07T12:28:30Z</time>
      </trkpt>
      <trkpt lat="47.31276" lon="6.02174">
        <ele>468.1</ele>
        <time>2012-05-07T12:28:31Z</time>
      </trkpt>
      <trkpt lat="47.31276" lon="6.02209">
        <ele>517.2</ele>
        <time>2012-05-07T12:28:34Z</time>
      </trkpt>
      <trkpt lat="47.31278" lon="6.0222">
        <ele>517.7</ele>
        <time>2012-05-07T12:28:41Z</time>
      </trkpt>
      <trkpt lat="47.31275" lon="6.02228">
        <ele>515.6</ele>
        <time>2012-05-07T12:28:44Z</time>
      </trkpt>
      <trkpt lat="47.3128" lon="6.02236">
        <ele>517.5</ele>
        <time>2012-05-07T12:28:46Z</time>
      </trkpt>
      <trkpt lat="47.31276" lon="6.02246">
        <ele>517</ele>
        <time>2012-05-07T12:28:51Z</time>
      </trkpt>
      <trkpt lat="47.31273" lon="6.02255">
        <ele>516.2</ele>
        <time>2012-05-07T12:28:58Z</time>
      </trkpt>
      <trkpt lat="47.31273" lon="6.02266">
        <ele>518.6</ele>
        <time>2012-05-07T12:29:05Z</time>
      </trkpt>
      <trkpt lat="47.31271" lon="6.02275">
        <ele>519.3</ele>
        <time>2012-05-07T12:29:10Z</time>
      </trkpt>
      <trkpt lat="47.31267" lon="6.02284">
        <ele>518.2</ele>
        <time>2012-05-07T12:29:14Z</time>
      </trkpt>
      <trkpt lat="47.31265" lon="6.02293">
        <ele>516.7</ele>
        <time>2012-05-07T12:29:21Z</time>
      </trkpt>
      <trkpt lat="47.31262" lon="6.02303">
        <ele>516.3</ele>
        <time>2012-05-07T12:29:26Z</time>
      </trkpt>
      <trkpt lat="47.31262" lon="6.02303">
        <ele>467.5</ele>
        <time>2012-05-07T12:29:37Z</time>
      </trkpt>
      <trkpt lat="47.31262" lon="6.02303">
        <ele>467.5</ele>
        <time>2012-05-07T12:29:42Z</time>
      </trkpt>
      <trkpt lat="47.31258" lon="6.02326">
        <ele>516.1</ele>
        <time>2012-05-07T12:29:45Z</time>
      </trkpt>
      <trkpt lat="47.31256" lon="6.02336">
        <ele>515.1</ele>
        <time>2012-05-07T12:29:51Z</time>
      </trkpt>
      <trkpt lat="47.31256" lon="6.02336">
        <ele>466.1</ele>
        <time>2012-05-07T12:30:02Z</time>
      </trkpt>
      <trkpt lat="47.31256" lon="6.02336">
        <ele>466.1</ele>
        <time>2012-05-07T12:30:14Z</time>
      </trkpt>
      <trkpt lat="47.31249" lon="6.02383">
        <ele>516.1</ele>
        <time>2012-05-07T12:30:16Z</time>
      </trkpt>
      <trkpt lat="47.31246" lon="6.02391">
        <ele>512.7</ele>
        <time>2012-05-07T12:30:20Z</time>
      </trkpt>
      <trkpt lat="47.31246" lon="6.02391">
        <ele>462.9</ele>
        <time>2012-05-07T12:30:31Z</time>
      </trkpt>
      <trkpt lat="47.31246" lon="6.02391">
        <ele>462.9</ele>
        <time>2012-05-07T12:30:34Z</time>
      </trkpt>
      <trkpt lat="47.31243" lon="6.0241">
        <ele>518.5</ele>
        <time>2012-05-07T12:30:40Z</time>
      </trkpt>
      <trkpt lat="47.31243" lon="6.0242">
        <ele>520.4</ele>
        <time>2012-05-07T12:30:49Z</time>
      </trkpt>
      <trkpt lat="47.3124" lon="6.0243">
        <ele>521.2</ele>
        <time>2012-05-07T12:30:55Z</time>
      </trkpt>
      <trkpt lat="47.31241" lon="6.0244">
        <ele>520</ele>
        <time>2012-05-07T12:31:03Z</time>
      </trkpt>
      <trkpt lat="47.31241" lon="6.0244">
        <ele>461.5</ele>
        <time>2012-05-07T12:31:14Z</time>
      </trkpt>
      <trkpt lat="47.31241" lon="6.0244">
        <ele>461.5</ele>
        <time>2012-05-07T12:32:33Z</time>
      </trkpt>
      <trkpt lat="47.31241" lon="6.0244">
        <ele>461.5</ele>
        <time>2012-05-07T12:32:44Z</time>
      </trkpt>
      <trkpt lat="47.31241" lon="6.0244">
        <ele>461.5</ele>
        <time>2012-05-07T12:33:38Z</time>
      </trkpt>
      <trkpt lat="47.31244" lon="6.02467">
        <ele>513.3</ele>
        <time>2012-05-07T12:33:42Z</time>
      </trkpt>
      <trkpt lat="47.3124" lon="6.0248">
        <ele>512.8</ele>
        <time>2012-05-07T12:33:48Z</time>
      </trkpt>
      <trkpt lat="47.31238" lon="6.02491">
        <ele>514.6</ele>
        <time>2012-05-07T12:33:59Z</time>
      </trkpt>
      <trkpt lat="47.31238" lon="6.02491">
        <ele>459.2</ele>
        <time>2012-05-07T12:34:10Z</time>
      </trkpt>
      <trkpt lat="47.31238" lon="6.02491">
        <ele>459.2</ele>
        <time>2012-05-07T12:34:21Z</time>
      </trkpt>
      <trkpt lat="47.31239" lon="6.02516">
        <ele>514.7</ele>
        <time>2012-05-07T12:34:23Z</time>
      </trkpt>
      <trkpt lat="47.31241" lon="6.02529">
        <ele>514.4</ele>
        <time>2012-05-07T12:34:25Z</time>
      </trkpt>
      <trkpt lat="47.3124" lon="6.0254">
        <ele>515.9</ele>
        <time>2012-05-07T12:34:28Z</time>
      </trkpt>
      <trkpt lat="47.31236" lon="6.02551">
        <ele>516.7</ele>
        <time>2012-05-07T12:34:31Z</time>
      </trkpt>
      <trkpt lat="47.31233" lon="6.02561">
        <ele>516.2</ele>
        <time>2012-05-07T12:34:34Z</time>
      </trkpt>
      <trkpt lat="47.3123" lon="6.02571">
        <ele>518.1</ele>
        <time>2012-05-07T12:34:36Z</time>
      </trkpt>
      <trkpt lat="47.3123" lon="6.02581">
        <ele>517.7</ele>
        <time>2012-05-07T12:34:41Z</time>
      </trkpt>
      <trkpt lat="47.31229" lon="6.02591">
        <ele>518.3</ele>
        <time>2012-05-07T12:34:45Z</time>
      </trkpt>
      <trkpt lat="47.31228" lon="6.02601">
        <ele>518.3</ele>
        <time>2012-05-07T12:34:49Z</time>
      </trkpt>
      <trkpt lat="47.31228" lon="6.0261">
        <ele>518</ele>
        <time>2012-05-07T12:34:53Z</time>
      </trkpt>
      <trkpt lat="47.31227" lon="6.02622">
        <ele>516</ele>
        <time>2012-05-07T12:34:57Z</time>
      </trkpt>
      <trkpt lat="47.31231" lon="6.0263">
        <ele>515.6</ele>
        <time>2012-05-07T12:35:01Z</time>
      </trkpt>
      <trkpt lat="47.31227" lon="6.02641">
        <ele>516.9</ele>
        <time>2012-05-07T12:35:06Z</time>
      </trkpt>
      <trkpt lat="47.31223" lon="6.02647">
        <ele>514.6</ele>
        <time>2012-05-07T12:35:12Z</time>
      </trkpt>
      <trkpt lat="47.31219" lon="6.02656">
        <ele>514.2</ele>
        <time>2012-05-07T12:35:16Z</time>
      </trkpt>
      <trkpt lat="47.31215" lon="6.02664">
        <ele>514.2</ele>
        <time>2012-05-07T12:35:21Z</time>
      </trkpt>
      <trkpt lat="47.31212" lon="6.02673">
        <ele>513.4</ele>
        <time>2012-05-07T12:35:27Z</time>
      </trkpt>
      <trkpt lat="47.31208" lon="6.02683">
        <ele>512</ele>
        <time>2012-05-07T12:35:35Z</time>
      </trkpt>
      <trkpt lat="47.31204" lon="6.02691">
        <ele>510.5</ele>
        <time>2012-05-07T12:35:41Z</time>
      </trkpt>
      <trkpt lat="47.31198" lon="6.02698">
        <ele>509.4</ele>
        <time>2012-05-07T12:35:46Z</time>
      </trkpt>
      <trkpt lat="47.31195" lon="6.02706">
        <ele>510.1</ele>
        <time>2012-05-07T12:35:50Z</time>
      </trkpt>
      <trkpt lat="47.31195" lon="6.02706">
        <ele>453.6</ele>
        <time>2012-05-07T12:36:01Z</time>
      </trkpt>
      <trkpt lat="47.31195" lon="6.02706">
        <ele>453.6</ele>
        <time>2012-05-07T12:36:09Z</time>
      </trkpt>
      <trkpt lat="47.31195" lon="6.02706">
        <ele>453.6</ele>
        <time>2012-05-07T12:36:20Z</time>
      </trkpt>
      <trkpt lat="47.31195" lon="6.02706">
        <ele>453.6</ele>
        <time>2012-05-07T12:36:25Z</time>
      </trkpt>
      <trkpt lat="47.31195" lon="6.02706">
        <ele>453.6</ele>
        <time>2012-05-07T12:36:36Z</time>
      </trkpt>
      <trkpt lat="47.31195" lon="6.02706">
        <ele>453.6</ele>
        <time>2012-05-07T12:38:01Z</time>
      </trkpt>
      <trkpt lat="47.31169" lon="6.02697">
        <ele>509.7</ele>
        <time>2012-05-07T12:38:05Z</time>
      </trkpt>
      <trkpt lat="47.31162" lon="6.02697">
        <ele>509.6</ele>
        <time>2012-05-07T12:38:07Z</time>
      </trkpt>
      <trkpt lat="47.31155" lon="6.02696">
        <ele>511.1</ele>
        <time>2012-05-07T12:38:10Z</time>
      </trkpt>
      <trkpt lat="47.31147" lon="6.02696">
        <ele>510.8</ele>
        <time>2012-05-07T12:38:13Z</time>
      </trkpt>
      <trkpt lat="47.3114" lon="6.02697">
        <ele>511.8</ele>
        <time>2012-05-07T12:38:19Z</time>
      </trkpt>
      <trkpt lat="47.31133" lon="6.02694">
        <ele>512.2</ele>
        <time>2012-05-07T12:38:25Z</time>
      </trkpt>
      <trkpt lat="47.31126" lon="6.02694">
        <ele>512.1</ele>
        <time>2012-05-07T12:38:28Z</time>
      </trkpt>
      <trkpt lat="47.3112" lon="6.02689">
        <ele>511.6</ele>
        <time>2012-05-07T12:38:33Z</time>
      </trkpt>
      <trkpt lat="47.3112" lon="6.02689">
        <ele>446.9</ele>
        <time>2012-05-07T12:38:44Z</time>
      </trkpt>
      <trkpt lat="47.3112" lon="6.02689">
        <ele>446.9</ele>
        <time>2012-05-07T12:39:01Z</time>
      </trkpt>
      <trkpt lat="47.31102" lon="6.02686">
        <ele>510.3</ele>
        <time>2012-05-07T12:39:04Z</time>
      </trkpt>
      <trkpt lat="47.31097" lon="6.02681">
        <ele>508.9</ele>
        <time>2012-05-07T12:39:07Z</time>
      </trkpt>
      <trkpt lat="47.3109" lon="6.02676">
        <ele>509.4</ele>
        <time>2012-05-07T12:39:11Z</time>
      </trkpt>
      <trkpt lat="47.31083" lon="6.02674">
        <ele>506</ele>
        <time>2012-05-07T12:39:16Z</time>
      </trkpt>
      <trkpt lat="47.31078" lon="6.02668">
        <ele>504.6</ele>
        <time>2012-05-07T12:39:23Z</time>
      </trkpt>
      <trkpt lat="47.31072" lon="6.02663">
        <ele>505.4</ele>
        <time>2012-05-07T12:39:29Z</time>
      </trkpt>
      <trkpt lat="47.31068" lon="6.02656">
        <ele>504.6</ele>
        <time>2012-05-07T12:39:35Z</time>
      </trkpt>
      <trkpt lat="47.31061" lon="6.0265">
        <ele>503.6</ele>
        <time>2012-05-07T12:39:42Z</time>
      </trkpt>
      <trkpt lat="47.31054" lon="6.02647">
        <ele>503.1</ele>
        <time>2012-05-07T12:39:48Z</time>
      </trkpt>
      <trkpt lat="47.31048" lon="6.02643">
        <ele>502.8</ele>
        <time>2012-05-07T12:39:53Z</time>
      </trkpt>
      <trkpt lat="47.31044" lon="6.02633">
        <ele>501.4</ele>
        <time>2012-05-07T12:40:00Z</time>
      </trkpt>
      <trkpt lat="47.31037" lon="6.0263">
        <ele>498.6</ele>
        <time>2012-05-07T12:40:06Z</time>
      </trkpt>
      <trkpt lat="47.3103" lon="6.0263">
        <ele>495.8</ele>
        <time>2012-05-07T12:40:12Z</time>
      </trkpt>
      <trkpt lat="47.31023" lon="6.02631">
        <ele>493.1</ele>
        <time>2012-05-07T12:40:21Z</time>
      </trkpt>
      <trkpt lat="47.31018" lon="6.02635">
        <ele>491</ele>
        <time>2012-05-07T12:40:28Z</time>
      </trkpt>
      <trkpt lat="47.3101" lon="6.02636">
        <ele>490.5</ele>
        <time>2012-05-07T12:40:33Z</time>
      </trkpt>
      <trkpt lat="47.31003" lon="6.0264">
        <ele>490.7</ele>
        <time>2012-05-07T12:40:38Z</time>
      </trkpt>
      <trkpt lat="47.30996" lon="6.02641">
        <ele>490.2</ele>
        <time>2012-05-07T12:40:43Z</time>
      </trkpt>
      <trkpt lat="47.30989" lon="6.0264">
        <ele>489.3</ele>
        <time>2012-05-07T12:40:48Z</time>
      </trkpt>
      <trkpt lat="47.30983" lon="6.02639">
        <ele>489.5</ele>
        <time>2012-05-07T12:40:53Z</time>
      </trkpt>
      <trkpt lat="47.30977" lon="6.02637">
        <ele>488.8</ele>
        <time>2012-05-07T12:41:02Z</time>
      </trkpt>
      <trkpt lat="47.3097" lon="6.02636">
        <ele>486.8</ele>
        <time>2012-05-07T12:41:06Z</time>
      </trkpt>
      <trkpt lat="47.30964" lon="6.0263">
        <ele>485</ele>
        <time>2012-05-07T12:41:13Z</time>
      </trkpt>
      <trkpt lat="47.30957" lon="6.02628">
        <ele>485.9</ele>
        <time>2012-05-07T12:41:21Z</time>
      </trkpt>
      <trkpt lat="47.30951" lon="6.02623">
        <ele>484.1</ele>
        <time>2012-05-07T12:41:28Z</time>
      </trkpt>
      <trkpt lat="47.30945" lon="6.0262">
        <ele>486.4</ele>
        <time>2012-05-07T12:41:34Z</time>
      </trkpt>
      <trkpt lat="47.30938" lon="6.02621">
        <ele>485.5</ele>
        <time>2012-05-07T12:41:39Z</time>
      </trkpt>
      <trkpt lat="47.30932" lon="6.02621">
        <ele>485.1</ele>
        <time>2012-05-07T12:41:44Z</time>
      </trkpt>
      <trkpt lat="47.30925" lon="6.0262">
        <ele>484.1</ele>
        <time>2012-05-07T12:41:49Z</time>
      </trkpt>
      <trkpt lat="47.30918" lon="6.02621">
        <ele>481.4</ele>
        <time>2012-05-07T12:41:55Z</time>
      </trkpt>
      <trkpt lat="47.30912" lon="6.02625">
        <ele>480.2</ele>
        <time>2012-05-07T12:42:00Z</time>
      </trkpt>
      <trkpt lat="47.30907" lon="6.0263">
        <ele>480.1</ele>
        <time>2012-05-07T12:42:04Z</time>
      </trkpt>
      <trkpt lat="47.30901" lon="6.02637">
        <ele>478.4</ele>
        <time>2012-05-07T12:42:12Z</time>
      </trkpt>
      <trkpt lat="47.30901" lon="6.02637">
        <ele>423.3</ele>
        <time>2012-05-07T12:42:23Z</time>
      </trkpt>
      <trkpt lat="47.30901" lon="6.02637">
        <ele>423.3</ele>
        <time>2012-05-07T12:42:25Z</time>
      </trkpt>
      <trkpt lat="47.30888" lon="6.02646">
        <ele>478.5</ele>
        <time>2012-05-07T12:42:31Z</time>
      </trkpt>
      <trkpt lat="47.30879" lon="6.02649">
        <ele>476.8</ele>
        <time>2012-05-07T12:42:38Z</time>
      </trkpt>
      <trkpt lat="47.30873" lon="6.02656">
        <ele>476.7</ele>
        <time>2012-05-07T12:42:43Z</time>
      </trkpt>
      <trkpt lat="47.30865" lon="6.02659">
        <ele>475.3</ele>
        <time>2012-05-07T12:42:52Z</time>
      </trkpt>
      <trkpt lat="47.30865" lon="6.02659">
        <ele>420.3</ele>
        <time>2012-05-07T12:43:03Z</time>
      </trkpt>
      <trkpt lat="47.30865" lon="6.02659">
        <ele>420.3</ele>
        <time>2012-05-07T12:44:41Z</time>
      </trkpt>
      <trkpt lat="47.30848" lon="6.02667">
        <ele>472.8</ele>
        <time>2012-05-07T12:44:43Z</time>
      </trkpt>
      <trkpt lat="47.30839" lon="6.02662">
        <ele>472.6</ele>
        <time>2012-05-07T12:44:46Z</time>
      </trkpt>
      <trkpt lat="47.30832" lon="6.02662">
        <ele>472.6</ele>
        <time>2012-05-07T12:44:48Z</time>
      </trkpt>
      <trkpt lat="47.30825" lon="6.02661">
        <ele>473.1</ele>
        <time>2012-05-07T12:44:50Z</time>
      </trkpt>
      <trkpt lat="47.30818" lon="6.0266">
        <ele>472.8</ele>
        <time>2012-05-07T12:44:52Z</time>
      </trkpt>
      <trkpt lat="47.30811" lon="6.02655">
        <ele>472.8</ele>
        <time>2012-05-07T12:44:55Z</time>
      </trkpt>
      <trkpt lat="47.30806" lon="6.02648">
        <ele>472.2</ele>
        <time>2012-05-07T12:45:00Z</time>
      </trkpt>
      <trkpt lat="47.30799" lon="6.02646">
        <ele>472</ele>
        <time>2012-05-07T12:45:04Z</time>
      </trkpt>
      <trkpt lat="47.30792" lon="6.02645">
        <ele>472.8</ele>
        <time>2012-05-07T12:45:09Z</time>
      </trkpt>
      <trkpt lat="47.30784" lon="6.02646">
        <ele>474.2</ele>
        <time>2012-05-07T12:45:16Z</time>
      </trkpt>
      <trkpt lat="47.30777" lon="6.02646">
        <ele>473.7</ele>
        <time>2012-05-07T12:45:21Z</time>
      </trkpt>
      <trkpt lat="47.3077" lon="6.02646">
        <ele>472.7</ele>
        <time>2012-05-07T12:45:26Z</time>
      </trkpt>
      <trkpt lat="47.30767" lon="6.02635">
        <ele>474.1</ele>
        <time>2012-05-07T12:45:33Z</time>
      </trkpt>
      <trkpt lat="47.30759" lon="6.02634">
        <ele>474.5</ele>
        <time>2012-05-07T12:45:39Z</time>
      </trkpt>
      <trkpt lat="47.30752" lon="6.02635">
        <ele>475.1</ele>
        <time>2012-05-07T12:45:44Z</time>
      </trkpt>
      <trkpt lat="47.30744" lon="6.02637">
        <ele>474.7</ele>
        <time>2012-05-07T12:45:50Z</time>
      </trkpt>
      <trkpt lat="47.30738" lon="6.02636">
        <ele>473.6</ele>
        <time>2012-05-07T12:45:55Z</time>
      </trkpt>
      <trkpt lat="47.30732" lon="6.0263">
        <ele>474.5</ele>
        <time>2012-05-07T12:46:03Z</time>
      </trkpt>
      <trkpt lat="47.30725" lon="6.02625">
        <ele>474</ele>
        <time>2012-05-07T12:46:07Z</time>
      </trkpt>
      <trkpt lat="47.30718" lon="6.02623">
        <ele>474.1</ele>
        <time>2012-05-07T12:46:13Z</time>
      </trkpt>
      <trkpt lat="47.30709" lon="6.02618">
        <ele>474.9</ele>
        <time>2012-05-07T12:46:19Z</time>
      </trkpt>
      <trkpt lat="47.30702" lon="6.02617">
        <ele>474.1</ele>
        <time>2012-05-07T12:46:26Z</time>
      </trkpt>
      <trkpt lat="47.30696" lon="6.0261">
        <ele>469.5</ele>
        <time>2012-05-07T12:46:34Z</time>
      </trkpt>
      <trkpt lat="47.3069" lon="6.02605">
        <ele>468.3</ele>
        <time>2012-05-07T12:46:40Z</time>
      </trkpt>
      <trkpt lat="47.30685" lon="6.02599">
        <ele>468.1</ele>
        <time>2012-05-07T12:46:45Z</time>
      </trkpt>
      <trkpt lat="47.30679" lon="6.02597">
        <ele>466.4</ele>
        <time>2012-05-07T12:46:49Z</time>
      </trkpt>
      <trkpt lat="47.30673" lon="6.0259">
        <ele>463.8</ele>
        <time>2012-05-07T12:47:05Z</time>
      </trkpt>
      <trkpt lat="47.30666" lon="6.02587">
        <ele>463.5</ele>
        <time>2012-05-07T12:47:10Z</time>
      </trkpt>
      <trkpt lat="47.30661" lon="6.0258">
        <ele>463.9</ele>
        <time>2012-05-07T12:47:19Z</time>
      </trkpt>
      <trkpt lat="47.30654" lon="6.02576">
        <ele>463.9</ele>
        <time>2012-05-07T12:47:26Z</time>
      </trkpt>
      <trkpt lat="47.30648" lon="6.02574">
        <ele>462.9</ele>
        <time>2012-05-07T12:47:31Z</time>
      </trkpt>
      <trkpt lat="47.30641" lon="6.02573">
        <ele>463.2</ele>
        <time>2012-05-07T12:47:35Z</time>
      </trkpt>
      <trkpt lat="47.30636" lon="6.02567">
        <ele>463.7</ele>
        <time>2012-05-07T12:47:41Z</time>
      </trkpt>
      <trkpt lat="47.3063" lon="6.0256">
        <ele>463.5</ele>
        <time>2012-05-07T12:47:47Z</time>
      </trkpt>
      <trkpt lat="47.30625" lon="6.02554">
        <ele>464.3</ele>
        <time>2012-05-07T12:47:54Z</time>
      </trkpt>
      <trkpt lat="47.30625" lon="6.02554">
        <ele>410.4</ele>
        <time>2012-05-07T12:48:06Z</time>
      </trkpt>
      <trkpt lat="47.30625" lon="6.02554">
        <ele>410.4</ele>
        <time>2012-05-07T12:48:07Z</time>
      </trkpt>
      <trkpt lat="47.30616" lon="6.02539">
        <ele>464.2</ele>
        <time>2012-05-07T12:48:12Z</time>
      </trkpt>
      <trkpt lat="47.30609" lon="6.02534">
        <ele>464</ele>
        <time>2012-05-07T12:48:16Z</time>
      </trkpt>
      <trkpt lat="47.30603" lon="6.02531">
        <ele>463.3</ele>
        <time>2012-05-07T12:48:20Z</time>
      </trkpt>
      <trkpt lat="47.30598" lon="6.02525">
        <ele>464.1</ele>
        <time>2012-05-07T12:48:27Z</time>
      </trkpt>
      <trkpt lat="47.30591" lon="6.02523">
        <ele>464.9</ele>
        <time>2012-05-07T12:48:32Z</time>
      </trkpt>
      <trkpt lat="47.30584" lon="6.0252">
        <ele>466.1</ele>
        <time>2012-05-07T12:48:36Z</time>
      </trkpt>
      <trkpt lat="47.30584" lon="6.0252">
        <ele>411.6</ele>
        <time>2012-05-07T12:48:48Z</time>
      </trkpt>
      <trkpt lat="47.30584" lon="6.0252">
        <ele>411.6</ele>
        <time>2012-05-07T12:49:10Z</time>
      </trkpt>
      <trkpt lat="47.30578" lon="6.02502">
        <ele>467.1</ele>
        <time>2012-05-07T12:49:15Z</time>
      </trkpt>
      <trkpt lat="47.30571" lon="6.02497">
        <ele>467.4</ele>
        <time>2012-05-07T12:49:20Z</time>
      </trkpt>
      <trkpt lat="47.30566" lon="6.02491">
        <ele>465.9</ele>
        <time>2012-05-07T12:49:25Z</time>
      </trkpt>
      <trkpt lat="47.30561" lon="6.02484">
        <ele>463.7</ele>
        <time>2012-05-07T12:49:33Z</time>
      </trkpt>
      <trkpt lat="47.30556" lon="6.02477">
        <ele>464.8</ele>
        <time>2012-05-07T12:49:38Z</time>
      </trkpt>
      <trkpt lat="47.30549" lon="6.02472">
        <ele>463</ele>
        <time>2012-05-07T12:49:45Z</time>
      </trkpt>
      <trkpt lat="47.30543" lon="6.02469">
        <ele>461.6</ele>
        <time>2012-05-07T12:49:52Z</time>
      </trkpt>
      <trkpt lat="47.30536" lon="6.02467">
        <ele>461.7</ele>
        <time>2012-05-07T12:49:59Z</time>
      </trkpt>
      <trkpt lat="47.30536" lon="6.02467">
        <ele>414.1</ele>
        <time>2012-05-07T12:50:11Z</time>
      </trkpt>
      <trkpt lat="47.30536" lon="6.02467">
        <ele>414.1</ele>
        <time>2012-05-07T12:50:41Z</time>
      </trkpt>
      <trkpt lat="47.30536" lon="6.02467">
        <ele>414.1</ele>
        <time>2012-05-07T12:50:53Z</time>
      </trkpt>
      <trkpt lat="47.30536" lon="6.02467">
        <ele>414.1</ele>
        <time>2012-05-07T12:57:02Z</time>
      </trkpt>
      <trkpt lat="47.30476" lon="6.0254">
        <ele>465.4</ele>
        <time>2012-05-07T12:57:08Z</time>
      </trkpt>
      <trkpt lat="47.30482" lon="6.02547">
        <ele>468.2</ele>
        <time>2012-05-07T12:57:13Z</time>
      </trkpt>
      <trkpt lat="47.30486" lon="6.02554">
        <ele>470</ele>
        <time>2012-05-07T12:57:19Z</time>
      </trkpt>
      <trkpt lat="47.30491" lon="6.02561">
        <ele>471.2</ele>
        <time>2012-05-07T12:57:24Z</time>
      </trkpt>
      <trkpt lat="47.30491" lon="6.02571">
        <ele>474.2</ele>
        <time>2012-05-07T12:57:34Z</time>
      </trkpt>
      <trkpt lat="47.30491" lon="6.02571">
        <ele>417.5</ele>
        <time>2012-05-07T12:57:46Z</time>
      </trkpt>
      <trkpt lat="47.30491" lon="6.02571">
        <ele>417.5</ele>
        <time>2012-05-07T12:58:04Z</time>
      </trkpt>
      <trkpt lat="47.30491" lon="6.02571">
        <ele>417.5</ele>
        <time>2012-05-07T12:58:16Z</time>
      </trkpt>
      <trkpt lat="47.30491" lon="6.02571">
        <ele>417.5</ele>
        <time>2012-05-07T12:58:17Z</time>
      </trkpt>
      <trkpt lat="47.30491" lon="6.02571">
        <ele>417.5</ele>
        <time>2012-05-07T12:58:29Z</time>
      </trkpt>
      <trkpt lat="47.30491" lon="6.02571">
        <ele>417.5</ele>
        <time>2012-05-07T12:59:45Z</time>
      </trkpt>
      <trkpt lat="47.30491" lon="6.02571">
        <ele>417.5</ele>
        <time>2012-05-07T12:59:57Z</time>
      </trkpt>
      <trkpt lat="47.30491" lon="6.02571">
        <ele>417.5</ele>
        <time>2012-05-07T13:00:19Z</time>
      </trkpt>
      <trkpt lat="47.3048" lon="6.02582">
        <ele>464.7</ele>
        <time>2012-05-07T13:00:25Z</time>
      </trkpt>
      <trkpt lat="47.30477" lon="6.02572">
        <ele>464.7</ele>
        <time>2012-05-07T13:00:33Z</time>
      </trkpt>
      <trkpt lat="47.30471" lon="6.02566">
        <ele>465.9</ele>
        <time>2012-05-07T13:00:39Z</time>
      </trkpt>
      <trkpt lat="47.30471" lon="6.02566">
        <ele>418.6</ele>
        <time>2012-05-07T13:00:51Z</time>
      </trkpt>
      <trkpt lat="47.30471" lon="6.02566">
        <ele>418.6</ele>
        <time>2012-05-07T13:01:16Z</time>
      </trkpt>
      <trkpt lat="47.30466" lon="6.02549">
        <ele>465.6</ele>
        <time>2012-05-07T13:01:24Z</time>
      </trkpt>
      <trkpt lat="47.30466" lon="6.02549">
        <ele>418.9</ele>
        <time>2012-05-07T13:01:36Z</time>
      </trkpt>
      <trkpt lat="47.30466" lon="6.02549">
        <ele>418.9</ele>
        <time>2012-05-07T13:01:43Z</time>
      </trkpt>
      <trkpt lat="47.30455" lon="6.02538">
        <ele>461.9</ele>
        <time>2012-05-07T13:01:52Z</time>
      </trkpt>
      <trkpt lat="47.30455" lon="6.02527">
        <ele>462.4</ele>
        <time>2012-05-07T13:01:58Z</time>
      </trkpt>
      <trkpt lat="47.30453" lon="6.02518">
        <ele>463.8</ele>
        <time>2012-05-07T13:02:05Z</time>
      </trkpt>
      <trkpt lat="47.30448" lon="6.02509">
        <ele>464.9</ele>
        <time>2012-05-07T13:02:11Z</time>
      </trkpt>
      <trkpt lat="47.30449" lon="6.02499">
        <ele>466.3</ele>
        <time>2012-05-07T13:02:18Z</time>
      </trkpt>
      <trkpt lat="47.30446" lon="6.02491">
        <ele>466.4</ele>
        <time>2012-05-07T13:02:26Z</time>
      </trkpt>
      <trkpt lat="47.30451" lon="6.02485">
        <ele>467.2</ele>
        <time>2012-05-07T13:02:32Z</time>
      </trkpt>
      <trkpt lat="47.30451" lon="6.02475">
        <ele>465.5</ele>
        <time>2012-05-07T13:02:38Z</time>
      </trkpt>
      <trkpt lat="47.30454" lon="6.02464">
        <ele>464.3</ele>
        <time>2012-05-07T13:02:46Z</time>
      </trkpt>
      <trkpt lat="47.30457" lon="6.02456">
        <ele>463.8</ele>
        <time>2012-05-07T13:02:51Z</time>
      </trkpt>
      <trkpt lat="47.30457" lon="6.02443">
        <ele>464.1</ele>
        <time>2012-05-07T13:02:56Z</time>
      </trkpt>
      <trkpt lat="47.30462" lon="6.02436">
        <ele>466.5</ele>
        <time>2012-05-07T13:03:00Z</time>
      </trkpt>
      <trkpt lat="47.30465" lon="6.02426">
        <ele>469</ele>
        <time>2012-05-07T13:03:06Z</time>
      </trkpt>
      <trkpt lat="47.30467" lon="6.02415">
        <ele>469.2</ele>
        <time>2012-05-07T13:03:12Z</time>
      </trkpt>
      <trkpt lat="47.30467" lon="6.02406">
        <ele>467.7</ele>
        <time>2012-05-07T13:03:19Z</time>
      </trkpt>
      <trkpt lat="47.30464" lon="6.02395">
        <ele>465.6</ele>
        <time>2012-05-07T13:03:26Z</time>
      </trkpt>
      <trkpt lat="47.30459" lon="6.02387">
        <ele>465.7</ele>
        <time>2012-05-07T13:03:35Z</time>
      </trkpt>
      <trkpt lat="47.30454" lon="6.02378">
        <ele>467.2</ele>
        <time>2012-05-07T13:03:42Z</time>
      </trkpt>
      <trkpt lat="47.30448" lon="6.02373">
        <ele>469</ele>
        <time>2012-05-07T13:03:47Z</time>
      </trkpt>
      <trkpt lat="47.3045" lon="6.02363">
        <ele>468.3</ele>
        <time>2012-05-07T13:03:53Z</time>
      </trkpt>
      <trkpt lat="47.30449" lon="6.02354">
        <ele>471.1</ele>
        <time>2012-05-07T13:04:00Z</time>
      </trkpt>
      <trkpt lat="47.30443" lon="6.02349">
        <ele>471.4</ele>
        <time>2012-05-07T13:04:07Z</time>
      </trkpt>
      <trkpt lat="47.30439" lon="6.02342">
        <ele>469.8</ele>
        <time>2012-05-07T13:04:12Z</time>
      </trkpt>
      <trkpt lat="47.30437" lon="6.02332">
        <ele>469.3</ele>
        <time>2012-05-07T13:04:18Z</time>
      </trkpt>
      <trkpt lat="47.30434" lon="6.02324">
        <ele>469.4</ele>
        <time>2012-05-07T13:04:24Z</time>
      </trkpt>
      <trkpt lat="47.30429" lon="6.02317">
        <ele>468.1</ele>
        <time>2012-05-07T13:04:33Z</time>
      </trkpt>
      <trkpt lat="47.30429" lon="6.02317">
        <ele>422.5</ele>
        <time>2012-05-07T13:04:44Z</time>
      </trkpt>
      <trkpt lat="47.30429" lon="6.02317">
        <ele>422.5</ele>
        <time>2012-05-07T13:04:49Z</time>
      </trkpt>
      <trkpt lat="47.30429" lon="6.02317">
        <ele>422.5</ele>
        <time>2012-05-07T13:05:00Z</time>
      </trkpt>
      <trkpt lat="47.30429" lon="6.02317">
        <ele>422.5</ele>
        <time>2012-05-07T13:05:45Z</time>
      </trkpt>
      <trkpt lat="47.30418" lon="6.02335">
        <ele>470.2</ele>
        <time>2012-05-07T13:05:52Z</time>
      </trkpt>
      <trkpt lat="47.30411" lon="6.0234">
        <ele>468.5</ele>
        <time>2012-05-07T13:06:00Z</time>
      </trkpt>
      <trkpt lat="47.30405" lon="6.02344">
        <ele>467.1</ele>
        <time>2012-05-07T13:06:05Z</time>
      </trkpt>
      <trkpt lat="47.30401" lon="6.02351">
        <ele>467</ele>
        <time>2012-05-07T13:06:11Z</time>
      </trkpt>
      <trkpt lat="47.30397" lon="6.02359">
        <ele>467.1</ele>
        <time>2012-05-07T13:06:18Z</time>
      </trkpt>
      <trkpt lat="47.30391" lon="6.02364">
        <ele>468.1</ele>
        <time>2012-05-07T13:06:24Z</time>
      </trkpt>
      <trkpt lat="47.30386" lon="6.02372">
        <ele>468.7</ele>
        <time>2012-05-07T13:06:31Z</time>
      </trkpt>
      <trkpt lat="47.30381" lon="6.02378">
        <ele>468.4</ele>
        <time>2012-05-07T13:06:35Z</time>
      </trkpt>
      <trkpt lat="47.30378" lon="6.02387">
        <ele>467.9</ele>
        <time>2012-05-07T13:06:41Z</time>
      </trkpt>
      <trkpt lat="47.30372" lon="6.02389">
        <ele>469.4</ele>
        <time>2012-05-07T13:06:50Z</time>
      </trkpt>
      <trkpt lat="47.30367" lon="6.024">
        <ele>471.3</ele>
        <time>2012-05-07T13:07:00Z</time>
      </trkpt>
      <trkpt lat="47.30364" lon="6.02411">
        <ele>471.5</ele>
        <time>2012-05-07T13:07:02Z</time>
      </trkpt>
      <trkpt lat="47.30362" lon="6.02421">
        <ele>474</ele>
        <time>2012-05-07T13:07:09Z</time>
      </trkpt>
      <trkpt lat="47.30362" lon="6.0243">
        <ele>474.1</ele>
        <time>2012-05-07T13:07:15Z</time>
      </trkpt>
      <trkpt lat="47.30364" lon="6.02441">
        <ele>474</ele>
        <time>2012-05-07T13:07:23Z</time>
      </trkpt>
      <trkpt lat="47.30359" lon="6.02447">
        <ele>474.3</ele>
        <time>2012-05-07T13:07:26Z</time>
      </trkpt>
      <trkpt lat="47.30359" lon="6.02458">
        <ele>476.3</ele>
        <time>2012-05-07T13:07:33Z</time>
      </trkpt>
      <trkpt lat="47.30356" lon="6.02465">
        <ele>478.3</ele>
        <time>2012-05-07T13:07:40Z</time>
      </trkpt>
      <trkpt lat="47.30356" lon="6.02465">
        <ele>430.4</ele>
        <time>2012-05-07T13:07:51Z</time>
      </trkpt>
      <trkpt lat="47.30356" lon="6.02465">
        <ele>430.4</ele>
        <time>2012-05-07T13:08:17Z</time>
      </trkpt>
      <trkpt lat="47.30356" lon="6.02465">
        <ele>430.4</ele>
        <time>2012-05-07T13:08:28Z</time>
      </trkpt>
      <trkpt lat="47.30356" lon="6.02465">
        <ele>430.4</ele>
        <time>2012-05-07T13:08:47Z</time>
      </trkpt>
      <trkpt lat="47.30337" lon="6.0249">
        <ele>482.6</ele>
        <time>2012-05-07T13:08:51Z</time>
      </trkpt>
      <trkpt lat="47.30332" lon="6.02496">
        <ele>482.7</ele>
        <time>2012-05-07T13:08:54Z</time>
      </trkpt>
      <trkpt lat="47.30325" lon="6.02503">
        <ele>484.9</ele>
        <time>2012-05-07T13:09:00Z</time>
      </trkpt>
      <trkpt lat="47.30325" lon="6.02503">
        <ele>434.9</ele>
        <time>2012-05-07T13:09:12Z</time>
      </trkpt>
      <trkpt lat="47.30325" lon="6.02503">
        <ele>434.9</ele>
        <time>2012-05-07T13:09:17Z</time>
      </trkpt>
      <trkpt lat="47.30325" lon="6.02503">
        <ele>434.9</ele>
        <time>2012-05-07T13:09:29Z</time>
      </trkpt>
      <trkpt lat="47.30325" lon="6.02503">
        <ele>434.9</ele>
        <time>2012-05-07T13:09:51Z</time>
      </trkpt>
      <trkpt lat="47.30303" lon="6.02526">
        <ele>485.9</ele>
        <time>2012-05-07T13:09:53Z</time>
      </trkpt>
      <trkpt lat="47.30296" lon="6.02531">
        <ele>486.2</ele>
        <time>2012-05-07T13:09:56Z</time>
      </trkpt>
      <trkpt lat="47.3029" lon="6.02538">
        <ele>484.4</ele>
        <time>2012-05-07T13:09:58Z</time>
      </trkpt>
      <trkpt lat="47.30287" lon="6.02546">
        <ele>484.6</ele>
        <time>2012-05-07T13:10:02Z</time>
      </trkpt>
      <trkpt lat="47.30278" lon="6.02552">
        <ele>489.1</ele>
        <time>2012-05-07T13:10:12Z</time>
      </trkpt>
      <trkpt lat="47.30282" lon="6.02559">
        <ele>490</ele>
        <time>2012-05-07T13:10:16Z</time>
      </trkpt>
      <trkpt lat="47.30284" lon="6.0257">
        <ele>491.4</ele>
        <time>2012-05-07T13:10:25Z</time>
      </trkpt>
      <trkpt lat="47.30281" lon="6.02579">
        <ele>493.9</ele>
        <time>2012-05-07T13:10:32Z</time>
      </trkpt>
      <trkpt lat="47.30289" lon="6.02582">
        <ele>494</ele>
        <time>2012-05-07T13:10:35Z</time>
      </trkpt>
      <trkpt lat="47.30286" lon="6.02591">
        <ele>495.6</ele>
        <time>2012-05-07T13:10:41Z</time>
      </trkpt>
      <trkpt lat="47.30286" lon="6.02591">
        <ele>447.2</ele>
        <time>2012-05-07T13:10:53Z</time>
      </trkpt>
      <trkpt lat="47.30286" lon="6.02591">
        <ele>447.2</ele>
        <time>2012-05-07T13:11:25Z</time>
      </trkpt>
      <trkpt lat="47.30296" lon="6.02609">
        <ele>498.7</ele>
        <time>2012-05-07T13:11:27Z</time>
      </trkpt>
      <trkpt lat="47.30299" lon="6.02622">
        <ele>499.5</ele>
        <time>2012-05-07T13:11:29Z</time>
      </trkpt>
      <trkpt lat="47.30306" lon="6.02629">
        <ele>502.5</ele>
        <time>2012-05-07T13:11:31Z</time>
      </trkpt>
      <trkpt lat="47.30314" lon="6.02636">
        <ele>503.3</ele>
        <time>2012-05-07T13:11:34Z</time>
      </trkpt>
      <trkpt lat="47.30318" lon="6.02647">
        <ele>506.2</ele>
        <time>2012-05-07T13:11:39Z</time>
      </trkpt>
      <trkpt lat="47.30316" lon="6.02657">
        <ele>505.6</ele>
        <time>2012-05-07T13:11:45Z</time>
      </trkpt>
      <trkpt lat="47.3032" lon="6.02664">
        <ele>504.4</ele>
        <time>2012-05-07T13:11:48Z</time>
      </trkpt>
      <trkpt lat="47.30324" lon="6.02672">
        <ele>503.1</ele>
        <time>2012-05-07T13:11:57Z</time>
      </trkpt>
      <trkpt lat="47.30322" lon="6.02683">
        <ele>504.3</ele>
        <time>2012-05-07T13:12:05Z</time>
      </trkpt>
      <trkpt lat="47.30327" lon="6.0269">
        <ele>506.4</ele>
        <time>2012-05-07T13:12:09Z</time>
      </trkpt>
      <trkpt lat="47.3033" lon="6.02699">
        <ele>506.5</ele>
        <time>2012-05-07T13:12:15Z</time>
      </trkpt>
      <trkpt lat="47.30334" lon="6.02708">
        <ele>510.7</ele>
        <time>2012-05-07T13:12:23Z</time>
      </trkpt>
      <trkpt lat="47.30334" lon="6.02708">
        <ele>446.3</ele>
        <time>2012-05-07T13:12:35Z</time>
      </trkpt>
      <trkpt lat="47.30334" lon="6.02708">
        <ele>446.3</ele>
        <time>2012-05-07T13:13:24Z</time>
      </trkpt>
      <trkpt lat="47.30338" lon="6.02729">
        <ele>511.5</ele>
        <time>2012-05-07T13:13:26Z</time>
      </trkpt>
      <trkpt lat="47.30338" lon="6.0274">
        <ele>510.6</ele>
        <time>2012-05-07T13:13:29Z</time>
      </trkpt>
      <trkpt lat="47.3034" lon="6.02751">
        <ele>510.8</ele>
        <time>2012-05-07T13:13:34Z</time>
      </trkpt>
      <trkpt lat="47.30346" lon="6.02756">
        <ele>513.3</ele>
        <time>2012-05-07T13:13:38Z</time>
      </trkpt>
      <trkpt lat="47.30351" lon="6.02764">
        <ele>515.2</ele>
        <time>2012-05-07T13:13:45Z</time>
      </trkpt>
      <trkpt lat="47.30346" lon="6.02777">
        <ele>513.6</ele>
        <time>2012-05-07T13:13:51Z</time>
      </trkpt>
      <trkpt lat="47.30353" lon="6.02786">
        <ele>514.1</ele>
        <time>2012-05-07T13:13:55Z</time>
      </trkpt>
      <trkpt lat="47.30359" lon="6.0279">
        <ele>514.7</ele>
        <time>2012-05-07T13:13:58Z</time>
      </trkpt>
      <trkpt lat="47.30353" lon="6.02798">
        <ele>513.1</ele>
        <time>2012-05-07T13:14:02Z</time>
      </trkpt>
      <trkpt lat="47.30359" lon="6.02802">
        <ele>512.9</ele>
        <time>2012-05-07T13:14:07Z</time>
      </trkpt>
      <trkpt lat="47.30363" lon="6.02809">
        <ele>515.9</ele>
        <time>2012-05-07T13:14:13Z</time>
      </trkpt>
      <trkpt lat="47.30366" lon="6.02819">
        <ele>516.3</ele>
        <time>2012-05-07T13:14:21Z</time>
      </trkpt>
      <trkpt lat="47.30366" lon="6.02819">
        <ele>459.2</ele>
        <time>2012-05-07T13:14:33Z</time>
      </trkpt>
      <trkpt lat="47.30366" lon="6.02819">
        <ele>459.2</ele>
        <time>2012-05-07T13:14:59Z</time>
      </trkpt>
      <trkpt lat="47.30373" lon="6.02844">
        <ele>515.1</ele>
        <time>2012-05-07T13:15:01Z</time>
      </trkpt>
      <trkpt lat="47.30377" lon="6.02854">
        <ele>514.4</ele>
        <time>2012-05-07T13:15:05Z</time>
      </trkpt>
      <trkpt lat="47.3038" lon="6.02862">
        <ele>515.3</ele>
        <time>2012-05-07T13:15:08Z</time>
      </trkpt>
      <trkpt lat="47.30384" lon="6.02871">
        <ele>514.9</ele>
        <time>2012-05-07T13:15:12Z</time>
      </trkpt>
      <trkpt lat="47.3039" lon="6.02876">
        <ele>515.5</ele>
        <time>2012-05-07T13:15:15Z</time>
      </trkpt>
      <trkpt lat="47.30394" lon="6.02883">
        <ele>516.6</ele>
        <time>2012-05-07T13:15:20Z</time>
      </trkpt>
      <trkpt lat="47.304" lon="6.02888">
        <ele>517</ele>
        <time>2012-05-07T13:15:24Z</time>
      </trkpt>
      <trkpt lat="47.30402" lon="6.02898">
        <ele>517.5</ele>
        <time>2012-05-07T13:15:29Z</time>
      </trkpt>
      <trkpt lat="47.30406" lon="6.02906">
        <ele>517.8</ele>
        <time>2012-05-07T13:15:33Z</time>
      </trkpt>
      <trkpt lat="47.30411" lon="6.02914">
        <ele>517.7</ele>
        <time>2012-05-07T13:15:42Z</time>
      </trkpt>
      <trkpt lat="47.30414" lon="6.02924">
        <ele>518.4</ele>
        <time>2012-05-07T13:15:48Z</time>
      </trkpt>
      <trkpt lat="47.3042" lon="6.0293">
        <ele>518</ele>
        <time>2012-05-07T13:15:53Z</time>
      </trkpt>
      <trkpt lat="47.30426" lon="6.02937">
        <ele>517.5</ele>
        <time>2012-05-07T13:16:00Z</time>
      </trkpt>
      <trkpt lat="47.30429" lon="6.02946">
        <ele>519</ele>
        <time>2012-05-07T13:16:06Z</time>
      </trkpt>
      <trkpt lat="47.30427" lon="6.02957">
        <ele>519.3</ele>
        <time>2012-05-07T13:16:12Z</time>
      </trkpt>
      <trkpt lat="47.30427" lon="6.02957">
        <ele>463</ele>
        <time>2012-05-07T13:16:24Z</time>
      </trkpt>
      <trkpt lat="47.30427" lon="6.02957">
        <ele>463</ele>
        <time>2012-05-07T13:16:27Z</time>
      </trkpt>
      <trkpt lat="47.30427" lon="6.02957">
        <ele>463</ele>
        <time>2012-05-07T13:16:39Z</time>
      </trkpt>
      <trkpt lat="47.30427" lon="6.02957">
        <ele>463</ele>
        <time>2012-05-07T13:16:50Z</time>
      </trkpt>
      <trkpt lat="47.30439" lon="6.02982">
        <ele>519.2</ele>
        <time>2012-05-07T13:16:53Z</time>
      </trkpt>
      <trkpt lat="47.3044" lon="6.02993">
        <ele>519.5</ele>
        <time>2012-05-07T13:16:58Z</time>
      </trkpt>
      <trkpt lat="47.30443" lon="6.03001">
        <ele>520.6</ele>
        <time>2012-05-07T13:17:02Z</time>
      </trkpt>
      <trkpt lat="47.3045" lon="6.03009">
        <ele>522.7</ele>
        <time>2012-05-07T13:17:07Z</time>
      </trkpt>
      <trkpt lat="47.30455" lon="6.03016">
        <ele>523</ele>
        <time>2012-05-07T13:17:10Z</time>
      </trkpt>
      <trkpt lat="47.30462" lon="6.03022">
        <ele>521</ele>
        <time>2012-05-07T13:17:15Z</time>
      </trkpt>
      <trkpt lat="47.30469" lon="6.03029">
        <ele>521.4</ele>
        <time>2012-05-07T13:17:18Z</time>
      </trkpt>
      <trkpt lat="47.30474" lon="6.03034">
        <ele>521.5</ele>
        <time>2012-05-07T13:17:21Z</time>
      </trkpt>
      <trkpt lat="47.30478" lon="6.03044">
        <ele>520.4</ele>
        <time>2012-05-07T13:17:27Z</time>
      </trkpt>
      <trkpt lat="47.3048" lon="6.03054">
        <ele>522.3</ele>
        <time>2012-05-07T13:17:34Z</time>
      </trkpt>
      <trkpt lat="47.30477" lon="6.03063">
        <ele>522.8</ele>
        <time>2012-05-07T13:17:41Z</time>
      </trkpt>
      <trkpt lat="47.3047" lon="6.03065">
        <ele>521.6</ele>
        <time>2012-05-07T13:17:43Z</time>
      </trkpt>
      <trkpt lat="47.30469" lon="6.03076">
        <ele>523.3</ele>
        <time>2012-05-07T13:17:49Z</time>
      </trkpt>
      <trkpt lat="47.30469" lon="6.03076">
        <ele>469.6</ele>
        <time>2012-05-07T13:18:02Z</time>
      </trkpt>
      <trkpt lat="47.30469" lon="6.03076">
        <ele>469.6</ele>
        <time>2012-05-07T13:18:02Z</time>
      </trkpt>
      <trkpt lat="47.30464" lon="6.03055">
        <ele>522.4</ele>
        <time>2012-05-07T13:18:06Z</time>
      </trkpt>
      <trkpt lat="47.3046" lon="6.03064">
        <ele>522.4</ele>
        <time>2012-05-07T13:18:09Z</time>
      </trkpt>
      <trkpt lat="47.30466" lon="6.03073">
        <ele>522.2</ele>
        <time>2012-05-07T13:18:12Z</time>
      </trkpt>
      <trkpt lat="47.30466" lon="6.03073">
        <ele>469.4</ele>
        <time>2012-05-07T13:18:24Z</time>
      </trkpt>
      <trkpt lat="47.30466" lon="6.03073">
        <ele>469.4</ele>
        <time>2012-05-07T13:18:28Z</time>
      </trkpt>
      <trkpt lat="47.30466" lon="6.03073">
        <ele>469.4</ele>
        <time>2012-05-07T13:18:40Z</time>
      </trkpt>
      <trkpt lat="47.30466" lon="6.03073">
        <ele>469.4</ele>
        <time>2012-05-07T13:23:44Z</time>
      </trkpt>
      <trkpt lat="47.30443" lon="6.0305">
        <ele>519.3</ele>
        <time>2012-05-07T13:23:51Z</time>
      </trkpt>
      <trkpt lat="47.30438" lon="6.03043">
        <ele>517.7</ele>
        <time>2012-05-07T13:23:58Z</time>
      </trkpt>
      <trkpt lat="47.30436" lon="6.03032">
        <ele>516</ele>
        <time>2012-05-07T13:24:05Z</time>
      </trkpt>
      <trkpt lat="47.30433" lon="6.03024">
        <ele>514.8</ele>
        <time>2012-05-07T13:24:13Z</time>
      </trkpt>
      <trkpt lat="47.30427" lon="6.03016">
        <ele>516.6</ele>
        <time>2012-05-07T13:24:19Z</time>
      </trkpt>
      <trkpt lat="47.30419" lon="6.0301">
        <ele>516.7</ele>
        <time>2012-05-07T13:24:26Z</time>
      </trkpt>
      <trkpt lat="47.30411" lon="6.03009">
        <ele>518.7</ele>
        <time>2012-05-07T13:24:33Z</time>
      </trkpt>
      <trkpt lat="47.30404" lon="6.03011">
        <ele>519.6</ele>
        <time>2012-05-07T13:24:37Z</time>
      </trkpt>
      <trkpt lat="47.30399" lon="6.03004">
        <ele>521.9</ele>
        <time>2012-05-07T13:24:48Z</time>
      </trkpt>
      <trkpt lat="47.30399" lon="6.03004">
        <ele>468.5</ele>
        <time>2012-05-07T13:25:00Z</time>
      </trkpt>
      <trkpt lat="47.30399" lon="6.03004">
        <ele>468.5</ele>
        <time>2012-05-07T13:26:54Z</time>
      </trkpt>
      <trkpt lat="47.30396" lon="6.02983">
        <ele>525</ele>
        <time>2012-05-07T13:26:56Z</time>
      </trkpt>
      <trkpt lat="47.30392" lon="6.02974">
        <ele>525.6</ele>
        <time>2012-05-07T13:27:01Z</time>
      </trkpt>
      <trkpt lat="47.30392" lon="6.02974">
        <ele>470.6</ele>
        <time>2012-05-07T13:27:13Z</time>
      </trkpt>
      <trkpt lat="47.30392" lon="6.02974">
        <ele>470.6</ele>
        <time>2012-05-07T13:27:18Z</time>
      </trkpt>
      <trkpt lat="47.30381" lon="6.02961">
        <ele>524.1</ele>
        <time>2012-05-07T13:27:23Z</time>
      </trkpt>
      <trkpt lat="47.3038" lon="6.02951">
        <ele>524.7</ele>
        <time>2012-05-07T13:27:29Z</time>
      </trkpt>
      <trkpt lat="47.30376" lon="6.02943">
        <ele>525.6</ele>
        <time>2012-05-07T13:27:34Z</time>
      </trkpt>
      <trkpt lat="47.30372" lon="6.02935">
        <ele>527.7</ele>
        <time>2012-05-07T13:27:41Z</time>
      </trkpt>
      <trkpt lat="47.30377" lon="6.02928">
        <ele>528.4</ele>
        <time>2012-05-07T13:27:44Z</time>
      </trkpt>
      <trkpt lat="47.30374" lon="6.0292">
        <ele>528.1</ele>
        <time>2012-05-07T13:27:47Z</time>
      </trkpt>
      <trkpt lat="47.30368" lon="6.02917">
        <ele>528.2</ele>
        <time>2012-05-07T13:27:52Z</time>
      </trkpt>
      <trkpt lat="47.30364" lon="6.02907">
        <ele>528.7</ele>
        <time>2012-05-07T13:28:01Z</time>
      </trkpt>
      <trkpt lat="47.30361" lon="6.02899">
        <ele>528.4</ele>
        <time>2012-05-07T13:28:06Z</time>
      </trkpt>
      <trkpt lat="47.30354" lon="6.02893">
        <ele>532.1</ele>
        <time>2012-05-07T13:28:12Z</time>
      </trkpt>
      <trkpt lat="47.30351" lon="6.02884">
        <ele>530</ele>
        <time>2012-05-07T13:28:18Z</time>
      </trkpt>
      <trkpt lat="47.3035" lon="6.02874">
        <ele>528.7</ele>
        <time>2012-05-07T13:28:28Z</time>
      </trkpt>
      <trkpt lat="47.30346" lon="6.02867">
        <ele>530.2</ele>
        <time>2012-05-07T13:28:34Z</time>
      </trkpt>
      <trkpt lat="47.3034" lon="6.02861">
        <ele>530.8</ele>
        <time>2012-05-07T13:28:43Z</time>
      </trkpt>
      <trkpt lat="47.30335" lon="6.02856">
        <ele>529.8</ele>
        <time>2012-05-07T13:28:48Z</time>
      </trkpt>
      <trkpt lat="47.30335" lon="6.02856">
        <ele>482.3</ele>
        <time>2012-05-07T13:28:59Z</time>
      </trkpt>
      <trkpt lat="47.30335" lon="6.02856">
        <ele>482.3</ele>
        <time>2012-05-07T13:29:03Z</time>
      </trkpt>
      <trkpt lat="47.30322" lon="6.02843">
        <ele>531.5</ele>
        <time>2012-05-07T13:29:12Z</time>
      </trkpt>
      <trkpt lat="47.30317" lon="6.02837">
        <ele>531.5</ele>
        <time>2012-05-07T13:29:17Z</time>
      </trkpt>
      <trkpt lat="47.30315" lon="6.02828">
        <ele>530.4</ele>
        <time>2012-05-07T13:29:22Z</time>
      </trkpt>
      <trkpt lat="47.30311" lon="6.0282">
        <ele>531.8</ele>
        <time>2012-05-07T13:29:26Z</time>
      </trkpt>
      <trkpt lat="47.30311" lon="6.0281">
        <ele>532.8</ele>
        <time>2012-05-07T13:29:34Z</time>
      </trkpt>
      <trkpt lat="47.30306" lon="6.02802">
        <ele>533.1</ele>
        <time>2012-05-07T13:29:40Z</time>
      </trkpt>
      <trkpt lat="47.30302" lon="6.02795">
        <ele>534.9</ele>
        <time>2012-05-07T13:29:51Z</time>
      </trkpt>
      <trkpt lat="47.30296" lon="6.02789">
        <ele>536.3</ele>
        <time>2012-05-07T13:29:57Z</time>
      </trkpt>
      <trkpt lat="47.3029" lon="6.02786">
        <ele>536.3</ele>
        <time>2012-05-07T13:30:05Z</time>
      </trkpt>
      <trkpt lat="47.30283" lon="6.02776">
        <ele>537.9</ele>
        <time>2012-05-07T13:30:14Z</time>
      </trkpt>
      <trkpt lat="47.30282" lon="6.02765">
        <ele>538.2</ele>
        <time>2012-05-07T13:30:23Z</time>
      </trkpt>
      <trkpt lat="47.3028" lon="6.02756">
        <ele>538.6</ele>
        <time>2012-05-07T13:30:29Z</time>
      </trkpt>
      <trkpt lat="47.3028" lon="6.02756">
        <ele>484.6</ele>
        <time>2012-05-07T13:30:40Z</time>
      </trkpt>
      <trkpt lat="47.3028" lon="6.02756">
        <ele>484.6</ele>
        <time>2012-05-07T13:30:41Z</time>
      </trkpt>
      <trkpt lat="47.30277" lon="6.02737">
        <ele>539.8</ele>
        <time>2012-05-07T13:30:49Z</time>
      </trkpt>
      <trkpt lat="47.30274" lon="6.02728">
        <ele>539.3</ele>
        <time>2012-05-07T13:30:55Z</time>
      </trkpt>
      <trkpt lat="47.30269" lon="6.02722">
        <ele>539.3</ele>
        <time>2012-05-07T13:30:59Z</time>
      </trkpt>
      <trkpt lat="47.30264" lon="6.02714">
        <ele>538.6</ele>
        <time>2012-05-07T13:31:09Z</time>
      </trkpt>
      <trkpt lat="47.3026" lon="6.02706">
        <ele>538.3</ele>
        <time>2012-05-07T13:31:19Z</time>
      </trkpt>
      <trkpt lat="47.30257" lon="6.02697">
        <ele>538.6</ele>
        <time>2012-05-07T13:31:25Z</time>
      </trkpt>
      <trkpt lat="47.30255" lon="6.02688">
        <ele>538.6</ele>
        <time>2012-05-07T13:31:31Z</time>
      </trkpt>
      <trkpt lat="47.30251" lon="6.02681">
        <ele>537.6</ele>
        <time>2012-05-07T13:31:36Z</time>
      </trkpt>
      <trkpt lat="47.30245" lon="6.02674">
        <ele>538</ele>
        <time>2012-05-07T13:31:42Z</time>
      </trkpt>
      <trkpt lat="47.30239" lon="6.0267">
        <ele>539.6</ele>
        <time>2012-05-07T13:31:48Z</time>
      </trkpt>
      <trkpt lat="47.30233" lon="6.02663">
        <ele>541.5</ele>
        <time>2012-05-07T13:31:53Z</time>
      </trkpt>
      <trkpt lat="47.30227" lon="6.0266">
        <ele>540.8</ele>
        <time>2012-05-07T13:32:00Z</time>
      </trkpt>
      <trkpt lat="47.30223" lon="6.02653">
        <ele>541.6</ele>
        <time>2012-05-07T13:32:11Z</time>
      </trkpt>
      <trkpt lat="47.3023" lon="6.02649">
        <ele>541.2</ele>
        <time>2012-05-07T13:32:14Z</time>
      </trkpt>
      <trkpt lat="47.3023" lon="6.02649">
        <ele>485.2</ele>
        <time>2012-05-07T13:32:25Z</time>
      </trkpt>
      <trkpt lat="47.3023" lon="6.02649">
        <ele>485.2</ele>
        <time>2012-05-07T13:33:05Z</time>
      </trkpt>
      <trkpt lat="47.30214" lon="6.0264">
        <ele>539.1</ele>
        <time>2012-05-07T13:33:07Z</time>
      </trkpt>
      <trkpt lat="47.3021" lon="6.02629">
        <ele>540.3</ele>
        <time>2012-05-07T13:33:10Z</time>
      </trkpt>
      <trkpt lat="47.30202" lon="6.02623">
        <ele>541.3</ele>
        <time>2012-05-07T13:33:14Z</time>
      </trkpt>
      <trkpt lat="47.30197" lon="6.02614">
        <ele>541.9</ele>
        <time>2012-05-07T13:33:18Z</time>
      </trkpt>
      <trkpt lat="47.30193" lon="6.02606">
        <ele>542.9</ele>
        <time>2012-05-07T13:33:21Z</time>
      </trkpt>
      <trkpt lat="47.30189" lon="6.02597">
        <ele>542.2</ele>
        <time>2012-05-07T13:33:27Z</time>
      </trkpt>
      <trkpt lat="47.30182" lon="6.02592">
        <ele>541.3</ele>
        <time>2012-05-07T13:33:35Z</time>
      </trkpt>
      <trkpt lat="47.30182" lon="6.02581">
        <ele>541.8</ele>
        <time>2012-05-07T13:33:39Z</time>
      </trkpt>
      <trkpt lat="47.30189" lon="6.02579">
        <ele>539.1</ele>
        <time>2012-05-07T13:33:46Z</time>
      </trkpt>
      <trkpt lat="47.30189" lon="6.02579">
        <ele>485.1</ele>
        <time>2012-05-07T13:33:58Z</time>
      </trkpt>
      <trkpt lat="47.30189" lon="6.02579">
        <ele>485.1</ele>
        <time>2012-05-07T13:33:58Z</time>
      </trkpt>
      <trkpt lat="47.30192" lon="6.02564">
        <ele>541.2</ele>
        <time>2012-05-07T13:34:01Z</time>
      </trkpt>
      <trkpt lat="47.30192" lon="6.02564">
        <ele>485.1</ele>
        <time>2012-05-07T13:34:13Z</time>
      </trkpt>
      <trkpt lat="47.30192" lon="6.02564">
        <ele>485.1</ele>
        <time>2012-05-07T13:35:22Z</time>
      </trkpt>
      <trkpt lat="47.30185" lon="6.02548">
        <ele>541.3</ele>
        <time>2012-05-07T13:35:26Z</time>
      </trkpt>
      <trkpt lat="47.30184" lon="6.02534">
        <ele>540.5</ele>
        <time>2012-05-07T13:35:29Z</time>
      </trkpt>
      <trkpt lat="47.30179" lon="6.02524">
        <ele>539.6</ele>
        <time>2012-05-07T13:35:33Z</time>
      </trkpt>
      <trkpt lat="47.30177" lon="6.02514">
        <ele>539.2</ele>
        <time>2012-05-07T13:35:38Z</time>
      </trkpt>
      <trkpt lat="47.30177" lon="6.02514">
        <ele>483</ele>
        <time>2012-05-07T13:35:50Z</time>
      </trkpt>
      <trkpt lat="47.30177" lon="6.02514">
        <ele>483</ele>
        <time>2012-05-07T13:36:00Z</time>
      </trkpt>
      <trkpt lat="47.30172" lon="6.02492">
        <ele>538.1</ele>
        <time>2012-05-07T13:36:05Z</time>
      </trkpt>
      <trkpt lat="47.30166" lon="6.02484">
        <ele>538.5</ele>
        <time>2012-05-07T13:36:10Z</time>
      </trkpt>
      <trkpt lat="47.30163" lon="6.02475">
        <ele>538</ele>
        <time>2012-05-07T13:36:14Z</time>
      </trkpt>
      <trkpt lat="47.30159" lon="6.02466">
        <ele>538.1</ele>
        <time>2012-05-07T13:36:19Z</time>
      </trkpt>
      <trkpt lat="47.30154" lon="6.0246">
        <ele>539.7</ele>
        <time>2012-05-07T13:36:25Z</time>
      </trkpt>
      <trkpt lat="47.30149" lon="6.02454">
        <ele>541.4</ele>
        <time>2012-05-07T13:36:31Z</time>
      </trkpt>
      <trkpt lat="47.30144" lon="6.02445">
        <ele>541.4</ele>
        <time>2012-05-07T13:36:41Z</time>
      </trkpt>
      <trkpt lat="47.30137" lon="6.02439">
        <ele>540.8</ele>
        <time>2012-05-07T13:36:47Z</time>
      </trkpt>
      <trkpt lat="47.30137" lon="6.02439">
        <ele>482.6</ele>
        <time>2012-05-07T13:36:58Z</time>
      </trkpt>
      <trkpt lat="47.30137" lon="6.02439">
        <ele>482.6</ele>
        <time>2012-05-07T13:36:59Z</time>
      </trkpt>
      <trkpt lat="47.30126" lon="6.02425">
        <ele>540.8</ele>
        <time>2012-05-07T13:37:07Z</time>
      </trkpt>
      <trkpt lat="47.30126" lon="6.02414">
        <ele>542.8</ele>
        <time>2012-05-07T13:37:14Z</time>
      </trkpt>
      <trkpt lat="47.30121" lon="6.02407">
        <ele>541.7</ele>
        <time>2012-05-07T13:37:20Z</time>
      </trkpt>
      <trkpt lat="47.30117" lon="6.02399">
        <ele>541</ele>
        <time>2012-05-07T13:37:30Z</time>
      </trkpt>
      <trkpt lat="47.30117" lon="6.02399">
        <ele>479.4</ele>
        <time>2012-05-07T13:37:41Z</time>
      </trkpt>
      <trkpt lat="47.30117" lon="6.02399">
        <ele>479.4</ele>
        <time>2012-05-07T13:37:49Z</time>
      </trkpt>
      <trkpt lat="47.30117" lon="6.02399">
        <ele>479.4</ele>
        <time>2012-05-07T13:38:00Z</time>
      </trkpt>
      <trkpt lat="47.30117" lon="6.02399">
        <ele>479.4</ele>
        <time>2012-05-07T13:38:21Z</time>
      </trkpt>
      <trkpt lat="47.30108" lon="6.02376">
        <ele>537.9</ele>
        <time>2012-05-07T13:38:24Z</time>
      </trkpt>
      <trkpt lat="47.30105" lon="6.02366">
        <ele>538.1</ele>
        <time>2012-05-07T13:38:27Z</time>
      </trkpt>
      <trkpt lat="47.30102" lon="6.02357">
        <ele>537.8</ele>
        <time>2012-05-07T13:38:31Z</time>
      </trkpt>
      <trkpt lat="47.30097" lon="6.02348">
        <ele>540.9</ele>
        <time>2012-05-07T13:38:36Z</time>
      </trkpt>
      <trkpt lat="47.30092" lon="6.02341">
        <ele>539.8</ele>
        <time>2012-05-07T13:38:40Z</time>
      </trkpt>
      <trkpt lat="47.3009" lon="6.02331">
        <ele>539.5</ele>
        <time>2012-05-07T13:38:47Z</time>
      </trkpt>
      <trkpt lat="47.3009" lon="6.02331">
        <ele>476.5</ele>
        <time>2012-05-07T13:38:58Z</time>
      </trkpt>
      <trkpt lat="47.3009" lon="6.02331">
        <ele>476.5</ele>
        <time>2012-05-07T13:39:12Z</time>
      </trkpt>
      <trkpt lat="47.30085" lon="6.02313">
        <ele>541</ele>
        <time>2012-05-07T13:39:16Z</time>
      </trkpt>
      <trkpt lat="47.30085" lon="6.02313">
        <ele>475.3</ele>
        <time>2012-05-07T13:39:28Z</time>
      </trkpt>
      <trkpt lat="47.30085" lon="6.02313">
        <ele>475.3</ele>
        <time>2012-05-07T13:39:55Z</time>
      </trkpt>
      <trkpt lat="47.30079" lon="6.02293">
        <ele>540.2</ele>
        <time>2012-05-07T13:39:59Z</time>
      </trkpt>
      <trkpt lat="47.30078" lon="6.02282">
        <ele>539.8</ele>
        <time>2012-05-07T13:40:03Z</time>
      </trkpt>
      <trkpt lat="47.30075" lon="6.02273">
        <ele>540.9</ele>
        <time>2012-05-07T13:40:07Z</time>
      </trkpt>
      <trkpt lat="47.3007" lon="6.02261">
        <ele>541</ele>
        <time>2012-05-07T13:40:12Z</time>
      </trkpt>
      <trkpt lat="47.30064" lon="6.02257">
        <ele>541.1</ele>
        <time>2012-05-07T13:40:17Z</time>
      </trkpt>
      <trkpt lat="47.30064" lon="6.02257">
        <ele>469.9</ele>
        <time>2012-05-07T13:40:29Z</time>
      </trkpt>
      <trkpt lat="47.30064" lon="6.02257">
        <ele>469.9</ele>
        <time>2012-05-07T13:40:30Z</time>
      </trkpt>
      <trkpt lat="47.3008" lon="6.02249">
        <ele>538.6</ele>
        <time>2012-05-07T13:40:33Z</time>
      </trkpt>
      <trkpt lat="47.30074" lon="6.0225">
        <ele>537.2</ele>
        <time>2012-05-07T13:40:40Z</time>
      </trkpt>
      <trkpt lat="47.30069" lon="6.02243">
        <ele>534.4</ele>
        <time>2012-05-07T13:40:45Z</time>
      </trkpt>
      <trkpt lat="47.30063" lon="6.0224">
        <ele>531.7</ele>
        <time>2012-05-07T13:40:47Z</time>
      </trkpt>
      <trkpt lat="47.30056" lon="6.02238">
        <ele>531.9</ele>
        <time>2012-05-07T13:40:56Z</time>
      </trkpt>
      <trkpt lat="47.30051" lon="6.0223">
        <ele>530.1</ele>
        <time>2012-05-07T13:41:05Z</time>
      </trkpt>
      <trkpt lat="47.30051" lon="6.0223">
        <ele>467.5</ele>
        <time>2012-05-07T13:41:17Z</time>
      </trkpt>
      <trkpt lat="47.30051" lon="6.0223">
        <ele>467.5</ele>
        <time>2012-05-07T13:41:19Z</time>
      </trkpt>
      <trkpt lat="47.30051" lon="6.0223">
        <ele>467.5</ele>
        <time>2012-05-07T13:41:31Z</time>
      </trkpt>
      <trkpt lat="47.30051" lon="6.0223">
        <ele>467.5</ele>
        <time>2012-05-07T13:43:12Z</time>
      </trkpt>
      <trkpt lat="47.30032" lon="6.02212">
        <ele>530.4</ele>
        <time>2012-05-07T13:43:14Z</time>
      </trkpt>
      <trkpt lat="47.30028" lon="6.02201">
        <ele>530.4</ele>
        <time>2012-05-07T13:43:17Z</time>
      </trkpt>
      <trkpt lat="47.30028" lon="6.02191">
        <ele>529.3</ele>
        <time>2012-05-07T13:43:26Z</time>
      </trkpt>
      <trkpt lat="47.30027" lon="6.0218">
        <ele>527.9</ele>
        <time>2012-05-07T13:43:31Z</time>
      </trkpt>
      <trkpt lat="47.30021" lon="6.02173">
        <ele>524.4</ele>
        <time>2012-05-07T13:43:36Z</time>
      </trkpt>
      <trkpt lat="47.30016" lon="6.02166">
        <ele>523.9</ele>
        <time>2012-05-07T13:43:41Z</time>
      </trkpt>
      <trkpt lat="47.30014" lon="6.02157">
        <ele>523.7</ele>
        <time>2012-05-07T13:43:46Z</time>
      </trkpt>
      <trkpt lat="47.30014" lon="6.02157">
        <ele>459.6</ele>
        <time>2012-05-07T13:43:57Z</time>
      </trkpt>
      <trkpt lat="47.30014" lon="6.02157">
        <ele>459.6</ele>
        <time>2012-05-07T13:44:33Z</time>
      </trkpt>
      <trkpt lat="47.30004" lon="6.0214">
        <ele>521.6</ele>
        <time>2012-05-07T13:44:35Z</time>
      </trkpt>
      <trkpt lat="47.30002" lon="6.02131">
        <ele>521.5</ele>
        <time>2012-05-07T13:44:38Z</time>
      </trkpt>
      <trkpt lat="47.29998" lon="6.02118">
        <ele>522.6</ele>
        <time>2012-05-07T13:44:41Z</time>
      </trkpt>
      <trkpt lat="47.29994" lon="6.02107">
        <ele>517.6</ele>
        <time>2012-05-07T13:44:46Z</time>
      </trkpt>
      <trkpt lat="47.29991" lon="6.02097">
        <ele>519</ele>
        <time>2012-05-07T13:44:52Z</time>
      </trkpt>
      <trkpt lat="47.29986" lon="6.02088">
        <ele>520.7</ele>
        <time>2012-05-07T13:44:57Z</time>
      </trkpt>
      <trkpt lat="47.29984" lon="6.02077">
        <ele>518.6</ele>
        <time>2012-05-07T13:45:02Z</time>
      </trkpt>
      <trkpt lat="47.2998" lon="6.02069">
        <ele>518.7</ele>
        <time>2012-05-07T13:45:07Z</time>
      </trkpt>
      <trkpt lat="47.29982" lon="6.02058">
        <ele>518</ele>
        <time>2012-05-07T13:45:12Z</time>
      </trkpt>
      <trkpt lat="47.29981" lon="6.02049">
        <ele>517.6</ele>
        <time>2012-05-07T13:45:19Z</time>
      </trkpt>
      <trkpt lat="47.29985" lon="6.02042">
        <ele>516.5</ele>
        <time>2012-05-07T13:45:26Z</time>
      </trkpt>
      <trkpt lat="47.29984" lon="6.02033">
        <ele>515.2</ele>
        <time>2012-05-07T13:45:30Z</time>
      </trkpt>
      <trkpt lat="47.29981" lon="6.02025">
        <ele>514.3</ele>
        <time>2012-05-07T13:45:35Z</time>
      </trkpt>
      <trkpt lat="47.2998" lon="6.02013">
        <ele>513.9</ele>
        <time>2012-05-07T13:45:41Z</time>
      </trkpt>
      <trkpt lat="47.29984" lon="6.02005">
        <ele>511.9</ele>
        <time>2012-05-07T13:45:48Z</time>
      </trkpt>
      <trkpt lat="47.29981" lon="6.01996">
        <ele>512.3</ele>
        <time>2012-05-07T13:45:54Z</time>
      </trkpt>
      <trkpt lat="47.29978" lon="6.01986">
        <ele>511.9</ele>
        <time>2012-05-07T13:45:59Z</time>
      </trkpt>
      <trkpt lat="47.29974" lon="6.01976">
        <ele>511.9</ele>
        <time>2012-05-07T13:46:08Z</time>
      </trkpt>
      <trkpt lat="47.29969" lon="6.01968">
        <ele>512.8</ele>
        <time>2012-05-07T13:46:13Z</time>
      </trkpt>
      <trkpt lat="47.29969" lon="6.01968">
        <ele>443.3</ele>
        <time>2012-05-07T13:46:24Z</time>
      </trkpt>
      <trkpt lat="47.29969" lon="6.01968">
        <ele>443.3</ele>
        <time>2012-05-07T13:46:53Z</time>
      </trkpt>
      <trkpt lat="47.29969" lon="6.01946">
        <ele>508.9</ele>
        <time>2012-05-07T13:46:55Z</time>
      </trkpt>
      <trkpt lat="47.29972" lon="6.01937">
        <ele>509</ele>
        <time>2012-05-07T13:46:57Z</time>
      </trkpt>
      <trkpt lat="47.29974" lon="6.01928">
        <ele>508.1</ele>
        <time>2012-05-07T13:47:00Z</time>
      </trkpt>
      <trkpt lat="47.29971" lon="6.01918">
        <ele>507.6</ele>
        <time>2012-05-07T13:47:04Z</time>
      </trkpt>
      <trkpt lat="47.29975" lon="6.01909">
        <ele>508.2</ele>
        <time>2012-05-07T13:47:09Z</time>
      </trkpt>
      <trkpt lat="47.29976" lon="6.019">
        <ele>508.5</ele>
        <time>2012-05-07T13:47:15Z</time>
      </trkpt>
      <trkpt lat="47.29971" lon="6.01894">
        <ele>506.6</ele>
        <time>2012-05-07T13:47:17Z</time>
      </trkpt>
      <trkpt lat="47.29967" lon="6.01887">
        <ele>507.7</ele>
        <time>2012-05-07T13:47:22Z</time>
      </trkpt>
      <trkpt lat="47.29964" lon="6.01877">
        <ele>506.5</ele>
        <time>2012-05-07T13:47:27Z</time>
      </trkpt>
      <trkpt lat="47.29961" lon="6.01868">
        <ele>505</ele>
        <time>2012-05-07T13:47:32Z</time>
      </trkpt>
      <trkpt lat="47.29958" lon="6.01859">
        <ele>503.4</ele>
        <time>2012-05-07T13:47:39Z</time>
      </trkpt>
      <trkpt lat="47.29954" lon="6.01851">
        <ele>503.1</ele>
        <time>2012-05-07T13:47:44Z</time>
      </trkpt>
      <trkpt lat="47.29951" lon="6.01843">
        <ele>501.9</ele>
        <time>2012-05-07T13:47:50Z</time>
      </trkpt>
      <trkpt lat="47.29951" lon="6.01832">
        <ele>499.7</ele>
        <time>2012-05-07T13:47:55Z</time>
      </trkpt>
      <trkpt lat="47.29947" lon="6.01824">
        <ele>502.1</ele>
        <time>2012-05-07T13:48:04Z</time>
      </trkpt>
      <trkpt lat="47.29947" lon="6.01814">
        <ele>501.4</ele>
        <time>2012-05-07T13:48:09Z</time>
      </trkpt>
      <trkpt lat="47.29946" lon="6.01804">
        <ele>501</ele>
        <time>2012-05-07T13:48:14Z</time>
      </trkpt>
      <trkpt lat="47.29942" lon="6.01792">
        <ele>502</ele>
        <time>2012-05-07T13:48:20Z</time>
      </trkpt>
      <trkpt lat="47.29946" lon="6.01784">
        <ele>501.1</ele>
        <time>2012-05-07T13:48:25Z</time>
      </trkpt>
      <trkpt lat="47.29943" lon="6.01774">
        <ele>501.3</ele>
        <time>2012-05-07T13:48:32Z</time>
      </trkpt>
      <trkpt lat="47.29943" lon="6.01774">
        <ele>439.8</ele>
        <time>2012-05-07T13:48:44Z</time>
      </trkpt>
      <trkpt lat="47.29943" lon="6.01774">
        <ele>439.8</ele>
        <time>2012-05-07T13:48:50Z</time>
      </trkpt>
      <trkpt lat="47.29943" lon="6.01752">
        <ele>500.2</ele>
        <time>2012-05-07T13:48:56Z</time>
      </trkpt>
      <trkpt lat="47.29945" lon="6.01741">
        <ele>498.4</ele>
        <time>2012-05-07T13:49:02Z</time>
      </trkpt>
      <trkpt lat="47.29938" lon="6.01734">
        <ele>497.6</ele>
        <time>2012-05-07T13:49:06Z</time>
      </trkpt>
      <trkpt lat="47.29936" lon="6.01725">
        <ele>499.3</ele>
        <time>2012-05-07T13:49:14Z</time>
      </trkpt>
      <trkpt lat="47.29936" lon="6.01716">
        <ele>501.7</ele>
        <time>2012-05-07T13:49:21Z</time>
      </trkpt>
      <trkpt lat="47.29931" lon="6.0171">
        <ele>501.4</ele>
        <time>2012-05-07T13:49:27Z</time>
      </trkpt>
      <trkpt lat="47.29925" lon="6.01702">
        <ele>501.5</ele>
        <time>2012-05-07T13:49:34Z</time>
      </trkpt>
      <trkpt lat="47.29919" lon="6.01696">
        <ele>502.3</ele>
        <time>2012-05-07T13:49:42Z</time>
      </trkpt>
      <trkpt lat="47.29914" lon="6.01689">
        <ele>501.8</ele>
        <time>2012-05-07T13:49:46Z</time>
      </trkpt>
      <trkpt lat="47.29909" lon="6.01681">
        <ele>501.9</ele>
        <time>2012-05-07T13:49:51Z</time>
      </trkpt>
      <trkpt lat="47.29903" lon="6.01674">
        <ele>500.4</ele>
        <time>2012-05-07T13:49:55Z</time>
      </trkpt>
      <trkpt lat="47.29901" lon="6.01665">
        <ele>499.8</ele>
        <time>2012-05-07T13:50:02Z</time>
      </trkpt>
      <trkpt lat="47.29895" lon="6.0166">
        <ele>498.8</ele>
        <time>2012-05-07T13:50:06Z</time>
      </trkpt>
      <trkpt lat="47.29888" lon="6.01656">
        <ele>501.7</ele>
        <time>2012-05-07T13:50:11Z</time>
      </trkpt>
      <trkpt lat="47.29882" lon="6.01652">
        <ele>500.9</ele>
        <time>2012-05-07T13:50:22Z</time>
      </trkpt>
      <trkpt lat="47.29878" lon="6.01645">
        <ele>499.6</ele>
        <time>2012-05-07T13:50:27Z</time>
      </trkpt>
      <trkpt lat="47.29873" lon="6.01638">
        <ele>500.2</ele>
        <time>2012-05-07T13:50:33Z</time>
      </trkpt>
      <trkpt lat="47.29869" lon="6.0163">
        <ele>498.1</ele>
        <time>2012-05-07T13:50:41Z</time>
      </trkpt>
      <trkpt lat="47.29869" lon="6.0163">
        <ele>432.8</ele>
        <time>2012-05-07T13:50:53Z</time>
      </trkpt>
      <trkpt lat="47.29869" lon="6.0163">
        <ele>432.8</ele>
        <time>2012-05-07T13:50:54Z</time>
      </trkpt>
      <trkpt lat="47.29859" lon="6.01615">
        <ele>494.6</ele>
        <time>2012-05-07T13:51:00Z</time>
      </trkpt>
      <trkpt lat="47.29855" lon="6.01606">
        <ele>494.8</ele>
        <time>2012-05-07T13:51:11Z</time>
      </trkpt>
      <trkpt lat="47.2985" lon="6.01598">
        <ele>493.8</ele>
        <time>2012-05-07T13:51:17Z</time>
      </trkpt>
      <trkpt lat="47.29845" lon="6.01593">
        <ele>493</ele>
        <time>2012-05-07T13:51:22Z</time>
      </trkpt>
      <trkpt lat="47.29841" lon="6.01586">
        <ele>492.6</ele>
        <time>2012-05-07T13:51:27Z</time>
      </trkpt>
      <trkpt lat="47.29835" lon="6.01579">
        <ele>492.8</ele>
        <time>2012-05-07T13:51:35Z</time>
      </trkpt>
      <trkpt lat="47.29831" lon="6.0157">
        <ele>492.9</ele>
        <time>2012-05-07T13:51:42Z</time>
      </trkpt>
      <trkpt lat="47.29826" lon="6.01559">
        <ele>491.8</ele>
        <time>2012-05-07T13:51:50Z</time>
      </trkpt>
      <trkpt lat="47.29826" lon="6.01559">
        <ele>425.7</ele>
        <time>2012-05-07T13:52:02Z</time>
      </trkpt>
      <trkpt lat="47.29826" lon="6.01559">
        <ele>425.7</ele>
        <time>2012-05-07T13:52:05Z</time>
      </trkpt>
      <trkpt lat="47.29812" lon="6.0154">
        <ele>490.7</ele>
        <time>2012-05-07T13:52:09Z</time>
      </trkpt>
      <trkpt lat="47.29808" lon="6.01527">
        <ele>489.7</ele>
        <time>2012-05-07T13:52:16Z</time>
      </trkpt>
      <trkpt lat="47.29806" lon="6.01517">
        <ele>488.8</ele>
        <time>2012-05-07T13:52:23Z</time>
      </trkpt>
      <trkpt lat="47.29806" lon="6.01517">
        <ele>422.2</ele>
        <time>2012-05-07T13:52:35Z</time>
      </trkpt>
      <trkpt lat="47.29806" lon="6.01517">
        <ele>422.2</ele>
        <time>2012-05-07T13:52:35Z</time>
      </trkpt>
      <trkpt lat="47.298" lon="6.015">
        <ele>490</ele>
        <time>2012-05-07T13:52:42Z</time>
      </trkpt>
      <trkpt lat="47.298" lon="6.015">
        <ele>421</ele>
        <time>2012-05-07T13:52:54Z</time>
      </trkpt>
      <trkpt lat="47.298" lon="6.015">
        <ele>421</ele>
        <time>2012-05-07T13:54:19Z</time>
      </trkpt>
      <trkpt lat="47.29795" lon="6.01473">
        <ele>486.2</ele>
        <time>2012-05-07T13:54:20Z</time>
      </trkpt>
      <trkpt lat="47.29791" lon="6.01465">
        <ele>486</ele>
        <time>2012-05-07T13:54:22Z</time>
      </trkpt>
      <trkpt lat="47.29783" lon="6.01456">
        <ele>485.5</ele>
        <time>2012-05-07T13:54:25Z</time>
      </trkpt>
      <trkpt lat="47.29775" lon="6.01446">
        <ele>484.7</ele>
        <time>2012-05-07T13:54:27Z</time>
      </trkpt>
      <trkpt lat="47.29771" lon="6.01439">
        <ele>484</ele>
        <time>2012-05-07T13:54:29Z</time>
      </trkpt>
      <trkpt lat="47.29763" lon="6.01431">
        <ele>483.3</ele>
        <time>2012-05-07T13:54:32Z</time>
      </trkpt>
      <trkpt lat="47.29758" lon="6.01421">
        <ele>481.8</ele>
        <time>2012-05-07T13:54:36Z</time>
      </trkpt>
      <trkpt lat="47.29752" lon="6.01413">
        <ele>481.2</ele>
        <time>2012-05-07T13:54:44Z</time>
      </trkpt>
      <trkpt lat="47.29746" lon="6.01405">
        <ele>482.5</ele>
        <time>2012-05-07T13:54:50Z</time>
      </trkpt>
      <trkpt lat="47.29741" lon="6.01398">
        <ele>480.6</ele>
        <time>2012-05-07T13:54:55Z</time>
      </trkpt>
      <trkpt lat="47.29735" lon="6.01393">
        <ele>479.8</ele>
        <time>2012-05-07T13:55:01Z</time>
      </trkpt>
      <trkpt lat="47.29729" lon="6.01391">
        <ele>479.1</ele>
        <time>2012-05-07T13:55:05Z</time>
      </trkpt>
      <trkpt lat="47.29725" lon="6.01381">
        <ele>475.8</ele>
        <time>2012-05-07T13:55:11Z</time>
      </trkpt>
      <trkpt lat="47.2972" lon="6.01374">
        <ele>476.4</ele>
        <time>2012-05-07T13:55:21Z</time>
      </trkpt>
      <trkpt lat="47.2972" lon="6.01363">
        <ele>478.7</ele>
        <time>2012-05-07T13:55:28Z</time>
      </trkpt>
      <trkpt lat="47.29715" lon="6.01357">
        <ele>476.7</ele>
        <time>2012-05-07T13:55:33Z</time>
      </trkpt>
      <trkpt lat="47.29709" lon="6.01351">
        <ele>475.7</ele>
        <time>2012-05-07T13:55:38Z</time>
      </trkpt>
      <trkpt lat="47.29709" lon="6.01351">
        <ele>411.4</ele>
        <time>2012-05-07T13:55:52Z</time>
      </trkpt>
      <trkpt lat="47.29709" lon="6.01351">
        <ele>411.4</ele>
        <time>2012-05-07T13:56:28Z</time>
      </trkpt>
      <trkpt lat="47.29696" lon="6.01332">
        <ele>476.2</ele>
        <time>2012-05-07T13:56:30Z</time>
      </trkpt>
      <trkpt lat="47.29687" lon="6.01328">
        <ele>477.9</ele>
        <time>2012-05-07T13:56:32Z</time>
      </trkpt>
      <trkpt lat="47.2968" lon="6.01321">
        <ele>477.9</ele>
        <time>2012-05-07T13:56:35Z</time>
      </trkpt>
      <trkpt lat="47.29676" lon="6.01313">
        <ele>478.2</ele>
        <time>2012-05-07T13:56:39Z</time>
      </trkpt>
      <trkpt lat="47.2967" lon="6.01309">
        <ele>476.2</ele>
        <time>2012-05-07T13:56:42Z</time>
      </trkpt>
      <trkpt lat="47.2967" lon="6.01297">
        <ele>476.2</ele>
        <time>2012-05-07T13:56:48Z</time>
      </trkpt>
      <trkpt lat="47.29664" lon="6.01292">
        <ele>475</ele>
        <time>2012-05-07T13:56:54Z</time>
      </trkpt>
      <trkpt lat="47.29659" lon="6.01286">
        <ele>473.8</ele>
        <time>2012-05-07T13:56:58Z</time>
      </trkpt>
      <trkpt lat="47.29654" lon="6.0128">
        <ele>474.6</ele>
        <time>2012-05-07T13:57:03Z</time>
      </trkpt>
      <trkpt lat="47.29647" lon="6.01276">
        <ele>473.2</ele>
        <time>2012-05-07T13:57:11Z</time>
      </trkpt>
      <trkpt lat="47.29645" lon="6.01267">
        <ele>473.4</ele>
        <time>2012-05-07T13:57:16Z</time>
      </trkpt>
      <trkpt lat="47.29639" lon="6.01262">
        <ele>472.5</ele>
        <time>2012-05-07T13:57:23Z</time>
      </trkpt>
      <trkpt lat="47.29632" lon="6.01256">
        <ele>473.3</ele>
        <time>2012-05-07T13:57:30Z</time>
      </trkpt>
      <trkpt lat="47.2963" lon="6.01247">
        <ele>470.7</ele>
        <time>2012-05-07T13:57:37Z</time>
      </trkpt>
      <trkpt lat="47.29623" lon="6.01245">
        <ele>471.3</ele>
        <time>2012-05-07T13:57:44Z</time>
      </trkpt>
      <trkpt lat="47.29617" lon="6.01239">
        <ele>471.2</ele>
        <time>2012-05-07T13:57:48Z</time>
      </trkpt>
      <trkpt lat="47.29612" lon="6.01233">
        <ele>469.9</ele>
        <time>2012-05-07T13:57:56Z</time>
      </trkpt>
      <trkpt lat="47.29604" lon="6.01224">
        <ele>468.2</ele>
        <time>2012-05-07T13:58:02Z</time>
      </trkpt>
      <trkpt lat="47.29598" lon="6.01218">
        <ele>468.3</ele>
        <time>2012-05-07T13:58:09Z</time>
      </trkpt>
      <trkpt lat="47.29591" lon="6.01212">
        <ele>467.1</ele>
        <time>2012-05-07T13:58:15Z</time>
      </trkpt>
      <trkpt lat="47.29586" lon="6.01203">
        <ele>467.9</ele>
        <time>2012-05-07T13:58:23Z</time>
      </trkpt>
      <trkpt lat="47.29581" lon="6.01194">
        <ele>469.3</ele>
        <time>2012-05-07T13:58:34Z</time>
      </trkpt>
      <trkpt lat="47.29577" lon="6.01185">
        <ele>466.7</ele>
        <time>2012-05-07T13:58:39Z</time>
      </trkpt>
      <trkpt lat="47.29577" lon="6.01185">
        <ele>404.9</ele>
        <time>2012-05-07T13:58:51Z</time>
      </trkpt>
      <trkpt lat="47.29577" lon="6.01185">
        <ele>404.9</ele>
        <time>2012-05-07T13:58:52Z</time>
      </trkpt>
      <trkpt lat="47.29567" lon="6.01174">
        <ele>461.9</ele>
        <time>2012-05-07T13:58:57Z</time>
      </trkpt>
      <trkpt lat="47.29567" lon="6.01174">
        <ele>403.4</ele>
        <time>2012-05-07T13:59:09Z</time>
      </trkpt>
      <trkpt lat="47.29567" lon="6.01174">
        <ele>403.4</ele>
        <time>2012-05-07T13:59:54Z</time>
      </trkpt>
      <trkpt lat="47.29555" lon="6.01166">
        <ele>461.3</ele>
        <time>2012-05-07T13:59:55Z</time>
      </trkpt>
      <trkpt lat="47.29548" lon="6.0116">
        <ele>461.6</ele>
        <time>2012-05-07T13:59:57Z</time>
      </trkpt>
      <trkpt lat="47.29546" lon="6.0115">
        <ele>459.2</ele>
        <time>2012-05-07T14:00:00Z</time>
      </trkpt>
      <trkpt lat="47.2954" lon="6.01143">
        <ele>457.6</ele>
        <time>2012-05-07T14:00:03Z</time>
      </trkpt>
      <trkpt lat="47.29534" lon="6.01137">
        <ele>457.6</ele>
        <time>2012-05-07T14:00:05Z</time>
      </trkpt>
      <trkpt lat="47.29534" lon="6.01137">
        <ele>398.6</ele>
        <time>2012-05-07T14:00:17Z</time>
      </trkpt>
      <trkpt lat="47.29534" lon="6.01137">
        <ele>398.6</ele>
        <time>2012-05-07T14:12:06Z</time>
      </trkpt>
      <trkpt lat="47.29549" lon="6.01121">
        <ele>459</ele>
        <time>2012-05-07T14:12:08Z</time>
      </trkpt>
      <trkpt lat="47.2956" lon="6.01118">
        <ele>461.7</ele>
        <time>2012-05-07T14:12:10Z</time>
      </trkpt>
      <trkpt lat="47.29566" lon="6.01111">
        <ele>460.1</ele>
        <time>2012-05-07T14:12:13Z</time>
      </trkpt>
      <trkpt lat="47.29572" lon="6.01105">
        <ele>462.2</ele>
        <time>2012-05-07T14:12:19Z</time>
      </trkpt>
      <trkpt lat="47.29572" lon="6.01105">
        <ele>396.5</ele>
        <time>2012-05-07T14:12:31Z</time>
      </trkpt>
      <trkpt lat="47.29572" lon="6.01105">
        <ele>396.5</ele>
        <time>2012-05-07T14:12:47Z</time>
      </trkpt>
      <trkpt lat="47.29586" lon="6.01107">
        <ele>456.7</ele>
        <time>2012-05-07T14:12:55Z</time>
      </trkpt>
      <trkpt lat="47.29586" lon="6.01107">
        <ele>395.1</ele>
        <time>2012-05-07T14:13:07Z</time>
      </trkpt>
      <trkpt lat="47.29586" lon="6.01107">
        <ele>395.1</ele>
        <time>2012-05-07T14:13:47Z</time>
      </trkpt>
      <trkpt lat="47.29617" lon="6.01128">
        <ele>454.7</ele>
        <time>2012-05-07T14:13:48Z</time>
      </trkpt>
      <trkpt lat="47.29622" lon="6.01136">
        <ele>454.1</ele>
        <time>2012-05-07T14:13:50Z</time>
      </trkpt>
      <trkpt lat="47.29627" lon="6.01144">
        <ele>453.2</ele>
        <time>2012-05-07T14:13:53Z</time>
      </trkpt>
      <trkpt lat="47.29634" lon="6.01148">
        <ele>451.9</ele>
        <time>2012-05-07T14:13:55Z</time>
      </trkpt>
      <trkpt lat="47.29641" lon="6.01149">
        <ele>453</ele>
        <time>2012-05-07T14:13:57Z</time>
      </trkpt>
      <trkpt lat="47.29647" lon="6.01151">
        <ele>453.6</ele>
        <time>2012-05-07T14:13:59Z</time>
      </trkpt>
      <trkpt lat="47.29654" lon="6.01153">
        <ele>455</ele>
        <time>2012-05-07T14:14:08Z</time>
      </trkpt>
      <trkpt lat="47.29654" lon="6.01153">
        <ele>393.9</ele>
        <time>2012-05-07T14:14:20Z</time>
      </trkpt>
      <trkpt lat="47.29654" lon="6.01153">
        <ele>393.9</ele>
        <time>2012-05-07T14:14:49Z</time>
      </trkpt>
      <trkpt lat="47.29677" lon="6.01155">
        <ele>454.6</ele>
        <time>2012-05-07T14:14:50Z</time>
      </trkpt>
      <trkpt lat="47.29686" lon="6.01154">
        <ele>453</ele>
        <time>2012-05-07T14:14:55Z</time>
      </trkpt>
      <trkpt lat="47.29693" lon="6.01154">
        <ele>452.1</ele>
        <time>2012-05-07T14:14:58Z</time>
      </trkpt>
      <trkpt lat="47.29699" lon="6.01153">
        <ele>453.2</ele>
        <time>2012-05-07T14:15:03Z</time>
      </trkpt>
      <trkpt lat="47.29707" lon="6.01154">
        <ele>450.4</ele>
        <time>2012-05-07T14:15:08Z</time>
      </trkpt>
      <trkpt lat="47.29715" lon="6.01157">
        <ele>449.5</ele>
        <time>2012-05-07T14:15:11Z</time>
      </trkpt>
      <trkpt lat="47.29722" lon="6.01156">
        <ele>448.3</ele>
        <time>2012-05-07T14:15:16Z</time>
      </trkpt>
      <trkpt lat="47.29729" lon="6.01156">
        <ele>448.6</ele>
        <time>2012-05-07T14:15:19Z</time>
      </trkpt>
      <trkpt lat="47.29738" lon="6.01158">
        <ele>448.8</ele>
        <time>2012-05-07T14:15:26Z</time>
      </trkpt>
      <trkpt lat="47.29744" lon="6.01155">
        <ele>447.1</ele>
        <time>2012-05-07T14:15:31Z</time>
      </trkpt>
      <trkpt lat="47.29752" lon="6.01156">
        <ele>448.5</ele>
        <time>2012-05-07T14:15:37Z</time>
      </trkpt>
      <trkpt lat="47.29758" lon="6.0116">
        <ele>446.9</ele>
        <time>2012-05-07T14:15:42Z</time>
      </trkpt>
      <trkpt lat="47.29758" lon="6.0116">
        <ele>386.7</ele>
        <time>2012-05-07T14:15:54Z</time>
      </trkpt>
      <trkpt lat="47.29758" lon="6.0116">
        <ele>386.7</ele>
        <time>2012-05-07T14:15:59Z</time>
      </trkpt>
      <trkpt lat="47.29758" lon="6.0116">
        <ele>386.7</ele>
        <time>2012-05-07T14:16:11Z</time>
      </trkpt>
      <trkpt lat="47.29758" lon="6.0116">
        <ele>386.7</ele>
        <time>2012-05-07T14:16:15Z</time>
      </trkpt>
      <trkpt lat="47.29778" lon="6.01155">
        <ele>444.3</ele>
        <time>2012-05-07T14:16:22Z</time>
      </trkpt>
      <trkpt lat="47.29784" lon="6.01154">
        <ele>444.2</ele>
        <time>2012-05-07T14:16:30Z</time>
      </trkpt>
      <trkpt lat="47.29791" lon="6.01155">
        <ele>443.9</ele>
        <time>2012-05-07T14:16:33Z</time>
      </trkpt>
      <trkpt lat="47.29797" lon="6.0115">
        <ele>443.5</ele>
        <time>2012-05-07T14:16:36Z</time>
      </trkpt>
      <trkpt lat="47.29797" lon="6.0115">
        <ele>385.4</ele>
        <time>2012-05-07T14:16:48Z</time>
      </trkpt>
      <trkpt lat="47.29797" lon="6.0115">
        <ele>385.4</ele>
        <time>2012-05-07T14:16:49Z</time>
      </trkpt>
      <trkpt lat="47.29816" lon="6.0115">
        <ele>442.4</ele>
        <time>2012-05-07T14:16:52Z</time>
      </trkpt>
      <trkpt lat="47.29822" lon="6.0115">
        <ele>441.9</ele>
        <time>2012-05-07T14:16:57Z</time>
      </trkpt>
      <trkpt lat="47.29829" lon="6.0115">
        <ele>443.2</ele>
        <time>2012-05-07T14:17:05Z</time>
      </trkpt>
      <trkpt lat="47.29837" lon="6.01148">
        <ele>443.6</ele>
        <time>2012-05-07T14:17:08Z</time>
      </trkpt>
      <trkpt lat="47.29844" lon="6.01146">
        <ele>441.6</ele>
        <time>2012-05-07T14:17:11Z</time>
      </trkpt>
      <trkpt lat="47.29851" lon="6.01142">
        <ele>439.6</ele>
        <time>2012-05-07T14:17:14Z</time>
      </trkpt>
      <trkpt lat="47.29857" lon="6.01137">
        <ele>439.7</ele>
        <time>2012-05-07T14:17:22Z</time>
      </trkpt>
      <trkpt lat="47.29861" lon="6.01129">
        <ele>438.8</ele>
        <time>2012-05-07T14:17:28Z</time>
      </trkpt>
      <trkpt lat="47.29868" lon="6.01122">
        <ele>440</ele>
        <time>2012-05-07T14:17:34Z</time>
      </trkpt>
      <trkpt lat="47.29872" lon="6.01116">
        <ele>439.3</ele>
        <time>2012-05-07T14:17:40Z</time>
      </trkpt>
      <trkpt lat="47.29872" lon="6.01116">
        <ele>385.1</ele>
        <time>2012-05-07T14:17:52Z</time>
      </trkpt>
      <trkpt lat="47.29872" lon="6.01116">
        <ele>385.1</ele>
        <time>2012-05-07T14:18:05Z</time>
      </trkpt>
      <trkpt lat="47.29872" lon="6.01116">
        <ele>385.1</ele>
        <time>2012-05-07T14:18:17Z</time>
      </trkpt>
      <trkpt lat="47.29872" lon="6.01116">
        <ele>385.1</ele>
        <time>2012-05-07T14:18:34Z</time>
      </trkpt>
      <trkpt lat="47.29888" lon="6.01095">
        <ele>436.5</ele>
        <time>2012-05-07T14:18:39Z</time>
      </trkpt>
      <trkpt lat="47.29894" lon="6.0109">
        <ele>435.1</ele>
        <time>2012-05-07T14:18:46Z</time>
      </trkpt>
      <trkpt lat="47.29898" lon="6.01083">
        <ele>435.6</ele>
        <time>2012-05-07T14:18:50Z</time>
      </trkpt>
      <trkpt lat="47.29903" lon="6.01074">
        <ele>435.1</ele>
        <time>2012-05-07T14:18:55Z</time>
      </trkpt>
      <trkpt lat="47.29908" lon="6.01066">
        <ele>434.5</ele>
        <time>2012-05-07T14:19:01Z</time>
      </trkpt>
      <trkpt lat="47.29913" lon="6.0106">
        <ele>433.3</ele>
        <time>2012-05-07T14:19:06Z</time>
      </trkpt>
      <trkpt lat="47.2992" lon="6.01057">
        <ele>433.5</ele>
        <time>2012-05-07T14:19:11Z</time>
      </trkpt>
      <trkpt lat="47.29925" lon="6.01048">
        <ele>433.4</ele>
        <time>2012-05-07T14:19:16Z</time>
      </trkpt>
      <trkpt lat="47.29931" lon="6.01044">
        <ele>432.9</ele>
        <time>2012-05-07T14:19:22Z</time>
      </trkpt>
      <trkpt lat="47.29937" lon="6.01039">
        <ele>433</ele>
        <time>2012-05-07T14:19:27Z</time>
      </trkpt>
      <trkpt lat="47.29944" lon="6.01041">
        <ele>434.3</ele>
        <time>2012-05-07T14:19:34Z</time>
      </trkpt>
      <trkpt lat="47.2995" lon="6.0104">
        <ele>433.6</ele>
        <time>2012-05-07T14:19:44Z</time>
      </trkpt>
      <trkpt lat="47.29954" lon="6.0103">
        <ele>432</ele>
        <time>2012-05-07T14:19:52Z</time>
      </trkpt>
      <trkpt lat="47.2996" lon="6.01025">
        <ele>431.4</ele>
        <time>2012-05-07T14:19:57Z</time>
      </trkpt>
      <trkpt lat="47.29966" lon="6.0102">
        <ele>431.6</ele>
        <time>2012-05-07T14:20:02Z</time>
      </trkpt>
      <trkpt lat="47.29972" lon="6.01018">
        <ele>428.2</ele>
        <time>2012-05-07T14:20:11Z</time>
      </trkpt>
      <trkpt lat="47.29978" lon="6.01012">
        <ele>428.9</ele>
        <time>2012-05-07T14:20:16Z</time>
      </trkpt>
      <trkpt lat="47.29984" lon="6.01008">
        <ele>430</ele>
        <time>2012-05-07T14:20:21Z</time>
      </trkpt>
      <trkpt lat="47.30042" lon="6.00952">
        <ele>432.5</ele>
        <time>2012-05-07T14:21:26Z</time>
      </trkpt>
      <trkpt lat="47.30043" lon="6.00942">
        <ele>432.6</ele>
        <time>2012-05-07T14:21:30Z</time>
      </trkpt>
      <trkpt lat="47.30048" lon="6.00935">
        <ele>432.8</ele>
        <time>2012-05-07T14:21:38Z</time>
      </trkpt>
      <trkpt lat="47.30055" lon="6.00936">
        <ele>432.8</ele>
        <time>2012-05-07T14:21:42Z</time>
      </trkpt>
      <trkpt lat="47.30061" lon="6.00938">
        <ele>433.1</ele>
        <time>2012-05-07T14:21:49Z</time>
      </trkpt>
      <trkpt lat="47.30061" lon="6.00938">
        <ele>376.8</ele>
        <time>2012-05-07T14:22:00Z</time>
      </trkpt>
      <trkpt lat="47.30061" lon="6.00938">
        <ele>376.8</ele>
        <time>2012-05-07T14:22:01Z</time>
      </trkpt>
      <trkpt lat="47.30075" lon="6.00934">
        <ele>435.3</ele>
        <time>2012-05-07T14:22:07Z</time>
      </trkpt>
      <trkpt lat="47.30084" lon="6.00934">
        <ele>435</ele>
        <time>2012-05-07T14:22:13Z</time>
      </trkpt>
      <trkpt lat="47.30091" lon="6.00934">
        <ele>433.9</ele>
        <time>2012-05-07T14:22:19Z</time>
      </trkpt>
      <trkpt lat="47.30098" lon="6.00935">
        <ele>434.6</ele>
        <time>2012-05-07T14:22:27Z</time>
      </trkpt>
      <trkpt lat="47.30098" lon="6.00935">
        <ele>380.9</ele>
        <time>2012-05-07T14:22:38Z</time>
      </trkpt>
      <trkpt lat="47.30098" lon="6.00935">
        <ele>380.9</ele>
        <time>2012-05-07T14:23:02Z</time>
      </trkpt>
      <trkpt lat="47.30104" lon="6.00915">
        <ele>434.9</ele>
        <time>2012-05-07T14:23:04Z</time>
      </trkpt>
      <trkpt lat="47.30108" lon="6.00907">
        <ele>434.3</ele>
        <time>2012-05-07T14:23:06Z</time>
      </trkpt>
      <trkpt lat="47.30115" lon="6.00901">
        <ele>433.9</ele>
        <time>2012-05-07T14:23:10Z</time>
      </trkpt>
      <trkpt lat="47.30117" lon="6.00892">
        <ele>435.8</ele>
        <time>2012-05-07T14:23:14Z</time>
      </trkpt>
      <trkpt lat="47.3012" lon="6.00883">
        <ele>436.1</ele>
        <time>2012-05-07T14:23:18Z</time>
      </trkpt>
      <trkpt lat="47.30123" lon="6.00874">
        <ele>435.5</ele>
        <time>2012-05-07T14:23:24Z</time>
      </trkpt>
      <trkpt lat="47.30124" lon="6.00865">
        <ele>434.3</ele>
        <time>2012-05-07T14:23:31Z</time>
      </trkpt>
      <trkpt lat="47.30125" lon="6.00853">
        <ele>436.5</ele>
        <time>2012-05-07T14:23:36Z</time>
      </trkpt>
      <trkpt lat="47.30125" lon="6.00853">
        <ele>386.7</ele>
        <time>2012-05-07T14:23:47Z</time>
      </trkpt>
      <trkpt lat="47.30125" lon="6.00853">
        <ele>386.7</ele>
        <time>2012-05-07T14:23:50Z</time>
      </trkpt>
      <trkpt lat="47.30125" lon="6.00853">
        <ele>386.7</ele>
        <time>2012-05-07T14:24:01Z</time>
      </trkpt>
      <trkpt lat="47.30125" lon="6.00853">
        <ele>386.7</ele>
        <time>2012-05-07T14:24:07Z</time>
      </trkpt>
      <trkpt lat="47.3014" lon="6.0083">
        <ele>435.1</ele>
        <time>2012-05-07T14:24:10Z</time>
      </trkpt>
      <trkpt lat="47.30142" lon="6.00819">
        <ele>436</ele>
        <time>2012-05-07T14:24:13Z</time>
      </trkpt>
      <trkpt lat="47.30148" lon="6.00813">
        <ele>434.3</ele>
        <time>2012-05-07T14:24:20Z</time>
      </trkpt>
      <trkpt lat="47.30153" lon="6.00807">
        <ele>435.3</ele>
        <time>2012-05-07T14:24:27Z</time>
      </trkpt>
      <trkpt lat="47.3016" lon="6.00807">
        <ele>436.3</ele>
        <time>2012-05-07T14:24:34Z</time>
      </trkpt>
      <trkpt lat="47.30166" lon="6.00804">
        <ele>437.8</ele>
        <time>2012-05-07T14:24:39Z</time>
      </trkpt>
      <trkpt lat="47.30171" lon="6.00799">
        <ele>441</ele>
        <time>2012-05-07T14:24:48Z</time>
      </trkpt>
      <trkpt lat="47.30178" lon="6.00799">
        <ele>444.3</ele>
        <time>2012-05-07T14:24:54Z</time>
      </trkpt>
      <trkpt lat="47.30178" lon="6.00799">
        <ele>394.5</ele>
        <time>2012-05-07T14:25:06Z</time>
      </trkpt>
      <trkpt lat="47.30178" lon="6.00799">
        <ele>394.5</ele>
        <time>2012-05-07T14:25:12Z</time>
      </trkpt>
      <trkpt lat="47.30178" lon="6.00799">
        <ele>394.5</ele>
        <time>2012-05-07T14:25:24Z</time>
      </trkpt>
      <trkpt lat="47.30178" lon="6.00799">
        <ele>394.5</ele>
        <time>2012-05-07T14:27:47Z</time>
      </trkpt>
      <trkpt lat="47.30197" lon="6.00795">
        <ele>444.9</ele>
        <time>2012-05-07T14:27:51Z</time>
      </trkpt>
      <trkpt lat="47.30206" lon="6.00793">
        <ele>446</ele>
        <time>2012-05-07T14:27:55Z</time>
      </trkpt>
      <trkpt lat="47.30213" lon="6.00789">
        <ele>445.8</ele>
        <time>2012-05-07T14:28:02Z</time>
      </trkpt>
      <trkpt lat="47.3022" lon="6.00785">
        <ele>447.3</ele>
        <time>2012-05-07T14:28:08Z</time>
      </trkpt>
      <trkpt lat="47.30227" lon="6.0078">
        <ele>446.7</ele>
        <time>2012-05-07T14:28:13Z</time>
      </trkpt>
      <trkpt lat="47.30234" lon="6.00781">
        <ele>448.9</ele>
        <time>2012-05-07T14:28:23Z</time>
      </trkpt>
      <trkpt lat="47.30241" lon="6.00776">
        <ele>449.6</ele>
        <time>2012-05-07T14:28:32Z</time>
      </trkpt>
      <trkpt lat="47.30246" lon="6.0077">
        <ele>451.5</ele>
        <time>2012-05-07T14:28:38Z</time>
      </trkpt>
      <trkpt lat="47.30254" lon="6.00769">
        <ele>450.8</ele>
        <time>2012-05-07T14:28:45Z</time>
      </trkpt>
      <trkpt lat="47.30261" lon="6.00766">
        <ele>451.5</ele>
        <time>2012-05-07T14:28:54Z</time>
      </trkpt>
      <trkpt lat="47.30267" lon="6.00763">
        <ele>453.2</ele>
        <time>2012-05-07T14:29:01Z</time>
      </trkpt>
      <trkpt lat="47.30273" lon="6.00757">
        <ele>454.2</ele>
        <time>2012-05-07T14:29:09Z</time>
      </trkpt>
      <trkpt lat="47.30277" lon="6.00749">
        <ele>455</ele>
        <time>2012-05-07T14:29:17Z</time>
      </trkpt>
      <trkpt lat="47.30283" lon="6.00751">
        <ele>455.9</ele>
        <time>2012-05-07T14:29:25Z</time>
      </trkpt>
      <trkpt lat="47.3029" lon="6.00742">
        <ele>457.1</ele>
        <time>2012-05-07T14:29:33Z</time>
      </trkpt>
      <trkpt lat="47.30297" lon="6.00739">
        <ele>456.4</ele>
        <time>2012-05-07T14:29:43Z</time>
      </trkpt>
      <trkpt lat="47.30303" lon="6.00738">
        <ele>456.8</ele>
        <time>2012-05-07T14:29:52Z</time>
      </trkpt>
      <trkpt lat="47.30303" lon="6.00738">
        <ele>409.2</ele>
        <time>2012-05-07T14:30:04Z</time>
      </trkpt>
      <trkpt lat="47.30303" lon="6.00738">
        <ele>409.2</ele>
        <time>2012-05-07T14:30:04Z</time>
      </trkpt>
      <trkpt lat="47.30317" lon="6.00733">
        <ele>458.2</ele>
        <time>2012-05-07T14:30:12Z</time>
      </trkpt>
      <trkpt lat="47.30324" lon="6.00736">
        <ele>459.5</ele>
        <time>2012-05-07T14:30:19Z</time>
      </trkpt>
      <trkpt lat="47.30332" lon="6.00735">
        <ele>458.3</ele>
        <time>2012-05-07T14:30:28Z</time>
      </trkpt>
      <trkpt lat="47.30332" lon="6.00735">
        <ele>412.4</ele>
        <time>2012-05-07T14:30:40Z</time>
      </trkpt>
      <trkpt lat="47.30332" lon="6.00735">
        <ele>412.4</ele>
        <time>2012-05-07T14:30:50Z</time>
      </trkpt>
      <trkpt lat="47.30348" lon="6.00728">
        <ele>462.1</ele>
        <time>2012-05-07T14:30:53Z</time>
      </trkpt>
      <trkpt lat="47.30355" lon="6.00726">
        <ele>464.5</ele>
        <time>2012-05-07T14:30:57Z</time>
      </trkpt>
      <trkpt lat="47.30362" lon="6.00727">
        <ele>464.6</ele>
        <time>2012-05-07T14:31:04Z</time>
      </trkpt>
      <trkpt lat="47.30368" lon="6.00725">
        <ele>466.6</ele>
        <time>2012-05-07T14:31:13Z</time>
      </trkpt>
      <trkpt lat="47.30375" lon="6.00724">
        <ele>466</ele>
        <time>2012-05-07T14:31:19Z</time>
      </trkpt>
      <trkpt lat="47.30382" lon="6.00724">
        <ele>466.5</ele>
        <time>2012-05-07T14:31:23Z</time>
      </trkpt>
      <trkpt lat="47.30389" lon="6.00729">
        <ele>466.6</ele>
        <time>2012-05-07T14:31:33Z</time>
      </trkpt>
      <trkpt lat="47.30395" lon="6.00734">
        <ele>465.7</ele>
        <time>2012-05-07T14:31:40Z</time>
      </trkpt>
      <trkpt lat="47.304" lon="6.00739">
        <ele>464.1</ele>
        <time>2012-05-07T14:31:49Z</time>
      </trkpt>
      <trkpt lat="47.30406" lon="6.00742">
        <ele>464.3</ele>
        <time>2012-05-07T14:31:55Z</time>
      </trkpt>
      <trkpt lat="47.30412" lon="6.00746">
        <ele>464.3</ele>
        <time>2012-05-07T14:32:00Z</time>
      </trkpt>
      <trkpt lat="47.30419" lon="6.00743">
        <ele>464.7</ele>
        <time>2012-05-07T14:32:06Z</time>
      </trkpt>
      <trkpt lat="47.30424" lon="6.00749">
        <ele>466.4</ele>
        <time>2012-05-07T14:32:13Z</time>
      </trkpt>
      <trkpt lat="47.3043" lon="6.00753">
        <ele>464.7</ele>
        <time>2012-05-07T14:32:21Z</time>
      </trkpt>
      <trkpt lat="47.30437" lon="6.00759">
        <ele>464.6</ele>
        <time>2012-05-07T14:32:31Z</time>
      </trkpt>
      <trkpt lat="47.30437" lon="6.00759">
        <ele>421.8</ele>
        <time>2012-05-07T14:32:43Z</time>
      </trkpt>
      <trkpt lat="47.30437" lon="6.00759">
        <ele>421.8</ele>
        <time>2012-05-07T14:32:46Z</time>
      </trkpt>
      <trkpt lat="47.3045" lon="6.00764">
        <ele>468.7</ele>
        <time>2012-05-07T14:32:51Z</time>
      </trkpt>
      <trkpt lat="47.30457" lon="6.00764">
        <ele>468.6</ele>
        <time>2012-05-07T14:32:56Z</time>
      </trkpt>
      <trkpt lat="47.30463" lon="6.00765">
        <ele>470</ele>
        <time>2012-05-07T14:33:02Z</time>
      </trkpt>
      <trkpt lat="47.30469" lon="6.00768">
        <ele>470.8</ele>
        <time>2012-05-07T14:33:10Z</time>
      </trkpt>
      <trkpt lat="47.30476" lon="6.0077">
        <ele>472.8</ele>
        <time>2012-05-07T14:33:20Z</time>
      </trkpt>
      <trkpt lat="47.30483" lon="6.0077">
        <ele>473.2</ele>
        <time>2012-05-07T14:33:28Z</time>
      </trkpt>
      <trkpt lat="47.3049" lon="6.0077">
        <ele>473.1</ele>
        <time>2012-05-07T14:33:35Z</time>
      </trkpt>
      <trkpt lat="47.30496" lon="6.00771">
        <ele>473.3</ele>
        <time>2012-05-07T14:33:42Z</time>
      </trkpt>
      <trkpt lat="47.30503" lon="6.00771">
        <ele>471.7</ele>
        <time>2012-05-07T14:33:50Z</time>
      </trkpt>
      <trkpt lat="47.30511" lon="6.00771">
        <ele>471.8</ele>
        <time>2012-05-07T14:34:00Z</time>
      </trkpt>
      <trkpt lat="47.30517" lon="6.00771">
        <ele>472.7</ele>
        <time>2012-05-07T14:34:06Z</time>
      </trkpt>
      <trkpt lat="47.30523" lon="6.00767">
        <ele>475.6</ele>
        <time>2012-05-07T14:34:13Z</time>
      </trkpt>
      <trkpt lat="47.3053" lon="6.00765">
        <ele>477.5</ele>
        <time>2012-05-07T14:34:18Z</time>
      </trkpt>
      <trkpt lat="47.3053" lon="6.00765">
        <ele>430.1</ele>
        <time>2012-05-07T14:34:30Z</time>
      </trkpt>
      <trkpt lat="47.3053" lon="6.00765">
        <ele>430.1</ele>
        <time>2012-05-07T14:34:52Z</time>
      </trkpt>
      <trkpt lat="47.30541" lon="6.00749">
        <ele>478.7</ele>
        <time>2012-05-07T14:34:58Z</time>
      </trkpt>
      <trkpt lat="47.30547" lon="6.00746">
        <ele>479.1</ele>
        <time>2012-05-07T14:35:04Z</time>
      </trkpt>
      <trkpt lat="47.30553" lon="6.00749">
        <ele>480.5</ele>
        <time>2012-05-07T14:35:09Z</time>
      </trkpt>
      <trkpt lat="47.3056" lon="6.00746">
        <ele>482.6</ele>
        <time>2012-05-07T14:35:16Z</time>
      </trkpt>
      <trkpt lat="47.30565" lon="6.00739">
        <ele>483.5</ele>
        <time>2012-05-07T14:35:22Z</time>
      </trkpt>
      <trkpt lat="47.30567" lon="6.0073">
        <ele>482.5</ele>
        <time>2012-05-07T14:35:31Z</time>
      </trkpt>
      <trkpt lat="47.30568" lon="6.00721">
        <ele>482.4</ele>
        <time>2012-05-07T14:35:39Z</time>
      </trkpt>
      <trkpt lat="47.30571" lon="6.00711">
        <ele>481.8</ele>
        <time>2012-05-07T14:35:46Z</time>
      </trkpt>
      <trkpt lat="47.30574" lon="6.00702">
        <ele>482.2</ele>
        <time>2012-05-07T14:35:55Z</time>
      </trkpt>
      <trkpt lat="47.30572" lon="6.00692">
        <ele>480.6</ele>
        <time>2012-05-07T14:36:02Z</time>
      </trkpt>
      <trkpt lat="47.30578" lon="6.00688">
        <ele>479.6</ele>
        <time>2012-05-07T14:36:06Z</time>
      </trkpt>
      <trkpt lat="47.3058" lon="6.00677">
        <ele>479.4</ele>
        <time>2012-05-07T14:36:12Z</time>
      </trkpt>
      <trkpt lat="47.30582" lon="6.00669">
        <ele>481.2</ele>
        <time>2012-05-07T14:36:21Z</time>
      </trkpt>
      <trkpt lat="47.30587" lon="6.00661">
        <ele>481</ele>
        <time>2012-05-07T14:36:26Z</time>
      </trkpt>
      <trkpt lat="47.30593" lon="6.00658">
        <ele>481.9</ele>
        <time>2012-05-07T14:36:33Z</time>
      </trkpt>
      <trkpt lat="47.30598" lon="6.00651">
        <ele>481.4</ele>
        <time>2012-05-07T14:36:36Z</time>
      </trkpt>
      <trkpt lat="47.30605" lon="6.00651">
        <ele>481.8</ele>
        <time>2012-05-07T14:36:45Z</time>
      </trkpt>
      <trkpt lat="47.30612" lon="6.00646">
        <ele>481</ele>
        <time>2012-05-07T14:36:53Z</time>
      </trkpt>
      <trkpt lat="47.30614" lon="6.00636">
        <ele>479.8</ele>
        <time>2012-05-07T14:37:00Z</time>
      </trkpt>
      <trkpt lat="47.30619" lon="6.00629">
        <ele>481.4</ele>
        <time>2012-05-07T14:37:07Z</time>
      </trkpt>
      <trkpt lat="47.30625" lon="6.00623">
        <ele>482.1</ele>
        <time>2012-05-07T14:37:13Z</time>
      </trkpt>
      <trkpt lat="47.30629" lon="6.00617">
        <ele>482.2</ele>
        <time>2012-05-07T14:37:20Z</time>
      </trkpt>
      <trkpt lat="47.30634" lon="6.0061">
        <ele>480</ele>
        <time>2012-05-07T14:37:29Z</time>
      </trkpt>
      <trkpt lat="47.30638" lon="6.00602">
        <ele>480.7</ele>
        <time>2012-05-07T14:37:34Z</time>
      </trkpt>
      <trkpt lat="47.30642" lon="6.00594">
        <ele>481</ele>
        <time>2012-05-07T14:37:40Z</time>
      </trkpt>
      <trkpt lat="47.30649" lon="6.00593">
        <ele>480.5</ele>
        <time>2012-05-07T14:37:47Z</time>
      </trkpt>
      <trkpt lat="47.30649" lon="6.00593">
        <ele>426.2</ele>
        <time>2012-05-07T14:37:59Z</time>
      </trkpt>
      <trkpt lat="47.30649" lon="6.00593">
        <ele>426.2</ele>
        <time>2012-05-07T14:38:01Z</time>
      </trkpt>
      <trkpt lat="47.30663" lon="6.00596">
        <ele>480.5</ele>
        <time>2012-05-07T14:38:07Z</time>
      </trkpt>
      <trkpt lat="47.30669" lon="6.00596">
        <ele>480.7</ele>
        <time>2012-05-07T14:38:13Z</time>
      </trkpt>
      <trkpt lat="47.30676" lon="6.00597">
        <ele>480.2</ele>
        <time>2012-05-07T14:38:23Z</time>
      </trkpt>
      <trkpt lat="47.30682" lon="6.00601">
        <ele>480.6</ele>
        <time>2012-05-07T14:38:32Z</time>
      </trkpt>
      <trkpt lat="47.30682" lon="6.00601">
        <ele>423.7</ele>
        <time>2012-05-07T14:38:44Z</time>
      </trkpt>
      <trkpt lat="47.30682" lon="6.00601">
        <ele>423.7</ele>
        <time>2012-05-07T14:38:44Z</time>
      </trkpt>
      <trkpt lat="47.30695" lon="6.00611">
        <ele>478</ele>
        <time>2012-05-07T14:38:49Z</time>
      </trkpt>
      <trkpt lat="47.30698" lon="6.0062">
        <ele>475.2</ele>
        <time>2012-05-07T14:38:58Z</time>
      </trkpt>
      <trkpt lat="47.30698" lon="6.0062">
        <ele>424.3</ele>
        <time>2012-05-07T14:39:10Z</time>
      </trkpt>
      <trkpt lat="47.30698" lon="6.0062">
        <ele>424.3</ele>
        <time>2012-05-07T14:39:43Z</time>
      </trkpt>
      <trkpt lat="47.30711" lon="6.00614">
        <ele>474</ele>
        <time>2012-05-07T14:39:46Z</time>
      </trkpt>
      <trkpt lat="47.30718" lon="6.00618">
        <ele>474.1</ele>
        <time>2012-05-07T14:39:50Z</time>
      </trkpt>
      <trkpt lat="47.30726" lon="6.00619">
        <ele>473.8</ele>
        <time>2012-05-07T14:39:54Z</time>
      </trkpt>
      <trkpt lat="47.30732" lon="6.00617">
        <ele>472</ele>
        <time>2012-05-07T14:40:03Z</time>
      </trkpt>
      <trkpt lat="47.30741" lon="6.00618">
        <ele>473.8</ele>
        <time>2012-05-07T14:40:12Z</time>
      </trkpt>
      <trkpt lat="47.30748" lon="6.0062">
        <ele>475.2</ele>
        <time>2012-05-07T14:40:14Z</time>
      </trkpt>
      <trkpt lat="47.30755" lon="6.0062">
        <ele>475.6</ele>
        <time>2012-05-07T14:40:16Z</time>
      </trkpt>
      <trkpt lat="47.30761" lon="6.00621">
        <ele>473.4</ele>
        <time>2012-05-07T14:40:20Z</time>
      </trkpt>
      <trkpt lat="47.30767" lon="6.00617">
        <ele>472.7</ele>
        <time>2012-05-07T14:40:27Z</time>
      </trkpt>
      <trkpt lat="47.30773" lon="6.0062">
        <ele>473</ele>
        <time>2012-05-07T14:40:33Z</time>
      </trkpt>
      <trkpt lat="47.30773" lon="6.0062">
        <ele>424.6</ele>
        <time>2012-05-07T14:40:45Z</time>
      </trkpt>
      <trkpt lat="47.30773" lon="6.0062">
        <ele>424.6</ele>
        <time>2012-05-07T14:40:45Z</time>
      </trkpt>
      <trkpt lat="47.30785" lon="6.00619">
        <ele>471.8</ele>
        <time>2012-05-07T14:40:51Z</time>
      </trkpt>
      <trkpt lat="47.30793" lon="6.00616">
        <ele>471</ele>
        <time>2012-05-07T14:40:59Z</time>
      </trkpt>
      <trkpt lat="47.30799" lon="6.00613">
        <ele>473.3</ele>
        <time>2012-05-07T14:41:04Z</time>
      </trkpt>
      <trkpt lat="47.30799" lon="6.00613">
        <ele>422.8</ele>
        <time>2012-05-07T14:41:16Z</time>
      </trkpt>
      <trkpt lat="47.30799" lon="6.00613">
        <ele>422.8</ele>
        <time>2012-05-07T14:41:19Z</time>
      </trkpt>
      <trkpt lat="47.30799" lon="6.00613">
        <ele>422.8</ele>
        <time>2012-05-07T14:41:31Z</time>
      </trkpt>
      <trkpt lat="47.30799" lon="6.00613">
        <ele>422.8</ele>
        <time>2012-05-07T14:41:34Z</time>
      </trkpt>
      <trkpt lat="47.30817" lon="6.00601">
        <ele>474.1</ele>
        <time>2012-05-07T14:41:41Z</time>
      </trkpt>
      <trkpt lat="47.30817" lon="6.00601">
        <ele>422.1</ele>
        <time>2012-05-07T14:41:53Z</time>
      </trkpt>
      <trkpt lat="47.30817" lon="6.00601">
        <ele>422.1</ele>
        <time>2012-05-07T14:42:09Z</time>
      </trkpt>
      <trkpt lat="47.30828" lon="6.00585">
        <ele>476.9</ele>
        <time>2012-05-07T14:42:17Z</time>
      </trkpt>
      <trkpt lat="47.30828" lon="6.00585">
        <ele>422.8</ele>
        <time>2012-05-07T14:42:29Z</time>
      </trkpt>
      <trkpt lat="47.30828" lon="6.00585">
        <ele>422.8</ele>
        <time>2012-05-07T14:42:50Z</time>
      </trkpt>
      <trkpt lat="47.30829" lon="6.00575">
        <ele>472.7</ele>
        <time>2012-05-07T14:42:56Z</time>
      </trkpt>
      <trkpt lat="47.30829" lon="6.00575">
        <ele>423.5</ele>
        <time>2012-05-07T14:43:08Z</time>
      </trkpt>
      <trkpt lat="47.30829" lon="6.00575">
        <ele>423.5</ele>
        <time>2012-05-07T14:43:24Z</time>
      </trkpt>
      <trkpt lat="47.30824" lon="6.00555">
        <ele>473.6</ele>
        <time>2012-05-07T14:43:27Z</time>
      </trkpt>
      <trkpt lat="47.30823" lon="6.00546">
        <ele>472.3</ele>
        <time>2012-05-07T14:43:32Z</time>
      </trkpt>
      <trkpt lat="47.30819" lon="6.00538">
        <ele>469.5</ele>
        <time>2012-05-07T14:43:37Z</time>
      </trkpt>
      <trkpt lat="47.30819" lon="6.00538">
        <ele>420.8</ele>
        <time>2012-05-07T14:43:49Z</time>
      </trkpt>
      <trkpt lat="47.30819" lon="6.00538">
        <ele>420.8</ele>
        <time>2012-05-07T14:44:06Z</time>
      </trkpt>
      <trkpt lat="47.30819" lon="6.00538">
        <ele>420.8</ele>
        <time>2012-05-07T14:44:18Z</time>
      </trkpt>
      <trkpt lat="47.30819" lon="6.00538">
        <ele>420.8</ele>
        <time>2012-05-07T14:53:09Z</time>
      </trkpt>
      <trkpt lat="47.30819" lon="6.00538">
        <ele>420.8</ele>
        <time>2012-05-07T14:53:21Z</time>
      </trkpt>
      <trkpt lat="47.30819" lon="6.00538">
        <ele>420.8</ele>
        <time>2012-05-07T14:54:52Z</time>
      </trkpt>
      <trkpt lat="47.30828" lon="6.00532">
        <ele>474.2</ele>
        <time>2012-05-07T14:54:55Z</time>
      </trkpt>
      <trkpt lat="47.30828" lon="6.00532">
        <ele>423.4</ele>
        <time>2012-05-07T14:55:07Z</time>
      </trkpt>
      <trkpt lat="47.30828" lon="6.00532">
        <ele>423.4</ele>
        <time>2012-05-07T15:00:18Z</time>
      </trkpt>
      <trkpt lat="47.30823" lon="6.00549">
        <ele>471.1</ele>
        <time>2012-05-07T15:00:23Z</time>
      </trkpt>
      <trkpt lat="47.30828" lon="6.00556">
        <ele>473.9</ele>
        <time>2012-05-07T15:00:29Z</time>
      </trkpt>
      <trkpt lat="47.30828" lon="6.00556">
        <ele>424.6</ele>
        <time>2012-05-07T15:00:41Z</time>
      </trkpt>
      <trkpt lat="47.30828" lon="6.00556">
        <ele>424.6</ele>
        <time>2012-05-07T15:00:41Z</time>
      </trkpt>
      <trkpt lat="47.30828" lon="6.00556">
        <ele>424.6</ele>
        <time>2012-05-07T15:00:53Z</time>
      </trkpt>
      <trkpt lat="47.30828" lon="6.00556">
        <ele>424.6</ele>
        <time>2012-05-07T15:00:56Z</time>
      </trkpt>
      <trkpt lat="47.30822" lon="6.00581">
        <ele>470.6</ele>
        <time>2012-05-07T15:00:58Z</time>
      </trkpt>
      <trkpt lat="47.30819" lon="6.0059">
        <ele>468.3</ele>
        <time>2012-05-07T15:01:06Z</time>
      </trkpt>
      <trkpt lat="47.30815" lon="6.00597">
        <ele>467.8</ele>
        <time>2012-05-07T15:01:13Z</time>
      </trkpt>
      <trkpt lat="47.3081" lon="6.00604">
        <ele>467.1</ele>
        <time>2012-05-07T15:01:16Z</time>
      </trkpt>
      <trkpt lat="47.3081" lon="6.00604">
        <ele>422</ele>
        <time>2012-05-07T15:01:27Z</time>
      </trkpt>
      <trkpt lat="47.3081" lon="6.00604">
        <ele>422</ele>
        <time>2012-05-07T15:01:40Z</time>
      </trkpt>
      <trkpt lat="47.30799" lon="6.00621">
        <ele>464.4</ele>
        <time>2012-05-07T15:01:44Z</time>
      </trkpt>
      <trkpt lat="47.30794" lon="6.00628">
        <ele>464.4</ele>
        <time>2012-05-07T15:01:50Z</time>
      </trkpt>
      <trkpt lat="47.30787" lon="6.00634">
        <ele>463</ele>
        <time>2012-05-07T15:01:56Z</time>
      </trkpt>
      <trkpt lat="47.30783" lon="6.00642">
        <ele>460.5</ele>
        <time>2012-05-07T15:02:04Z</time>
      </trkpt>
      <trkpt lat="47.30773" lon="6.00641">
        <ele>461.5</ele>
        <time>2012-05-07T15:02:13Z</time>
      </trkpt>
      <trkpt lat="47.30767" lon="6.00641">
        <ele>460.1</ele>
        <time>2012-05-07T15:02:20Z</time>
      </trkpt>
      <trkpt lat="47.30758" lon="6.00642">
        <ele>458.1</ele>
        <time>2012-05-07T15:02:25Z</time>
      </trkpt>
      <trkpt lat="47.30752" lon="6.00645">
        <ele>457.3</ele>
        <time>2012-05-07T15:02:29Z</time>
      </trkpt>
      <trkpt lat="47.30746" lon="6.00644">
        <ele>455.7</ele>
        <time>2012-05-07T15:02:36Z</time>
      </trkpt>
      <trkpt lat="47.30739" lon="6.00642">
        <ele>456.3</ele>
        <time>2012-05-07T15:02:45Z</time>
      </trkpt>
      <trkpt lat="47.30732" lon="6.00636">
        <ele>455.7</ele>
        <time>2012-05-07T15:02:53Z</time>
      </trkpt>
      <trkpt lat="47.30728" lon="6.00629">
        <ele>456.8</ele>
        <time>2012-05-07T15:03:03Z</time>
      </trkpt>
      <trkpt lat="47.30721" lon="6.0063">
        <ele>458.5</ele>
        <time>2012-05-07T15:03:11Z</time>
      </trkpt>
      <trkpt lat="47.30714" lon="6.00641">
        <ele>455.9</ele>
        <time>2012-05-07T15:03:20Z</time>
      </trkpt>
      <trkpt lat="47.30705" lon="6.00641">
        <ele>455.5</ele>
        <time>2012-05-07T15:03:22Z</time>
      </trkpt>
      <trkpt lat="47.30698" lon="6.00638">
        <ele>456.6</ele>
        <time>2012-05-07T15:03:26Z</time>
      </trkpt>
      <trkpt lat="47.30691" lon="6.00634">
        <ele>456.1</ele>
        <time>2012-05-07T15:03:34Z</time>
      </trkpt>
      <trkpt lat="47.30684" lon="6.00629">
        <ele>455.1</ele>
        <time>2012-05-07T15:03:45Z</time>
      </trkpt>
      <trkpt lat="47.30679" lon="6.00624">
        <ele>454</ele>
        <time>2012-05-07T15:03:50Z</time>
      </trkpt>
      <trkpt lat="47.30679" lon="6.00624">
        <ele>427.2</ele>
        <time>2012-05-07T15:04:02Z</time>
      </trkpt>
      <trkpt lat="47.30679" lon="6.00624">
        <ele>427.2</ele>
        <time>2012-05-07T15:04:28Z</time>
      </trkpt>
      <trkpt lat="47.30665" lon="6.00635">
        <ele>454.1</ele>
        <time>2012-05-07T15:04:30Z</time>
      </trkpt>
      <trkpt lat="47.30657" lon="6.00638">
        <ele>454.1</ele>
        <time>2012-05-07T15:04:33Z</time>
      </trkpt>
      <trkpt lat="47.3065" lon="6.00644">
        <ele>455.3</ele>
        <time>2012-05-07T15:04:37Z</time>
      </trkpt>
      <trkpt lat="47.30644" lon="6.00647">
        <ele>455.9</ele>
        <time>2012-05-07T15:04:41Z</time>
      </trkpt>
      <trkpt lat="47.30639" lon="6.00654">
        <ele>460</ele>
        <time>2012-05-07T15:04:49Z</time>
      </trkpt>
      <trkpt lat="47.30634" lon="6.00661">
        <ele>461</ele>
        <time>2012-05-07T15:04:55Z</time>
      </trkpt>
      <trkpt lat="47.30635" lon="6.0067">
        <ele>461.3</ele>
        <time>2012-05-07T15:04:59Z</time>
      </trkpt>
      <trkpt lat="47.30635" lon="6.0068">
        <ele>459.3</ele>
        <time>2012-05-07T15:05:03Z</time>
      </trkpt>
      <trkpt lat="47.30634" lon="6.0069">
        <ele>458.4</ele>
        <time>2012-05-07T15:05:07Z</time>
      </trkpt>
      <trkpt lat="47.30634" lon="6.0069">
        <ele>433</ele>
        <time>2012-05-07T15:05:19Z</time>
      </trkpt>
      <trkpt lat="47.30634" lon="6.0069">
        <ele>433</ele>
        <time>2012-05-07T15:05:20Z</time>
      </trkpt>
      <trkpt lat="47.30626" lon="6.00706">
        <ele>462.6</ele>
        <time>2012-05-07T15:05:27Z</time>
      </trkpt>
      <trkpt lat="47.30621" lon="6.00715">
        <ele>461.7</ele>
        <time>2012-05-07T15:05:33Z</time>
      </trkpt>
      <trkpt lat="47.30615" lon="6.00719">
        <ele>459.9</ele>
        <time>2012-05-07T15:05:36Z</time>
      </trkpt>
      <trkpt lat="47.3061" lon="6.00725">
        <ele>459.4</ele>
        <time>2012-05-07T15:05:41Z</time>
      </trkpt>
      <trkpt lat="47.30603" lon="6.00732">
        <ele>458.6</ele>
        <time>2012-05-07T15:05:47Z</time>
      </trkpt>
      <trkpt lat="47.30601" lon="6.00742">
        <ele>456.3</ele>
        <time>2012-05-07T15:05:51Z</time>
      </trkpt>
      <trkpt lat="47.30601" lon="6.00742">
        <ele>433.4</ele>
        <time>2012-05-07T15:06:03Z</time>
      </trkpt>
      <trkpt lat="47.30601" lon="6.00742">
        <ele>433.4</ele>
        <time>2012-05-07T15:06:52Z</time>
      </trkpt>
      <trkpt lat="47.30601" lon="6.00765">
        <ele>464.5</ele>
        <time>2012-05-07T15:06:56Z</time>
      </trkpt>
      <trkpt lat="47.30602" lon="6.00774">
        <ele>467.5</ele>
        <time>2012-05-07T15:07:00Z</time>
      </trkpt>
      <trkpt lat="47.306" lon="6.00785">
        <ele>473.1</ele>
        <time>2012-05-07T15:07:06Z</time>
      </trkpt>
      <trkpt lat="47.30606" lon="6.0079">
        <ele>474.9</ele>
        <time>2012-05-07T15:07:12Z</time>
      </trkpt>
      <trkpt lat="47.30612" lon="6.00795">
        <ele>475.2</ele>
        <time>2012-05-07T15:07:20Z</time>
      </trkpt>
      <trkpt lat="47.30615" lon="6.00803">
        <ele>477.3</ele>
        <time>2012-05-07T15:07:27Z</time>
      </trkpt>
      <trkpt lat="47.30619" lon="6.00811">
        <ele>478.3</ele>
        <time>2012-05-07T15:07:32Z</time>
      </trkpt>
      <trkpt lat="47.30626" lon="6.00816">
        <ele>479.3</ele>
        <time>2012-05-07T15:07:38Z</time>
      </trkpt>
      <trkpt lat="47.30631" lon="6.00823">
        <ele>479.3</ele>
        <time>2012-05-07T15:07:46Z</time>
      </trkpt>
      <trkpt lat="47.30631" lon="6.00832">
        <ele>478.3</ele>
        <time>2012-05-07T15:07:51Z</time>
      </trkpt>
      <trkpt lat="47.30638" lon="6.0084">
        <ele>477.2</ele>
        <time>2012-05-07T15:08:02Z</time>
      </trkpt>
      <trkpt lat="47.30642" lon="6.0085">
        <ele>479.1</ele>
        <time>2012-05-07T15:08:08Z</time>
      </trkpt>
      <trkpt lat="47.3064" lon="6.00859">
        <ele>478.7</ele>
        <time>2012-05-07T15:08:18Z</time>
      </trkpt>
      <trkpt lat="47.30641" lon="6.0087">
        <ele>480.8</ele>
        <time>2012-05-07T15:08:25Z</time>
      </trkpt>
      <trkpt lat="47.30648" lon="6.00877">
        <ele>482.6</ele>
        <time>2012-05-07T15:08:29Z</time>
      </trkpt>
      <trkpt lat="47.30656" lon="6.00874">
        <ele>486.9</ele>
        <time>2012-05-07T15:08:32Z</time>
      </trkpt>
      <trkpt lat="47.30656" lon="6.00874">
        <ele>433.7</ele>
        <time>2012-05-07T15:08:43Z</time>
      </trkpt>
      <trkpt lat="47.30656" lon="6.00874">
        <ele>433.7</ele>
        <time>2012-05-07T15:08:44Z</time>
      </trkpt>
      <trkpt lat="47.30656" lon="6.00874">
        <ele>433.7</ele>
        <time>2012-05-07T15:08:46Z</time>
      </trkpt>
    </trkseg>
  </trk>
</gpx>